PWSweather.com
Personal Weather Stations
Station Observations
KOHREFORM1
Reform, Ohio, Newark, OH 43055

Reform, OhioNewark, OH 43055

Lat: 40.1502, Lon: -82.2417

Elevation: 1043

Station Type: Davis Vantage Pro 2 Plus

randysweatheronthehill.com

High Low Average
Temperature 49.7°F9.8°C 46.9°F8.3°C 48.4°F9.1°C
Dew Point 49.2°F9.6°C 45.4°F7.4°C 47.4°F8.6°C
Winds 22.0 mph 35.4 kmh Calm Calm 4.0 mph NE6.4 kmh NE
Wind Gusts 22.0 mph35.4 kmh 2.0 mph3.2 kmh 13.0 mph20.9 kmh
Humidity 94% 85% 91%
Pressure 30.12 in1020.0 mb 29.92 in1013.2 mb -
Precipitation 0.65 in16.5 mm - -
Hour Temp Dew Point Humidity Winds Wind Gusts Pressure Precip Precip Rate Daily Precip Total
12:00 AM 48.7°F9.3°C 45.9°F7.7°C 85% 5.0 mph NE8.0 kmh NE 12.0 mph19.3 kmh 30.11 in1019.6 mb 0.00 in0.0 mm 0.00 in0.0 mm 0.00 in0.0 mm
12:02 AM 48.6°F9.2°C 45.8°F7.7°C 85% 6.0 mph ENE9.7 kmh ENE 12.0 mph19.3 kmh 30.11 in1019.6 mb 0.00 in0.0 mm 0.00 in0.0 mm 0.00 in0.0 mm
12:04 AM 48.6°F9.2°C 45.8°F7.7°C 85% 2.0 mph NE3.2 kmh NE 12.0 mph19.3 kmh 30.11 in1019.6 mb 0.00 in0.0 mm 0.00 in0.0 mm 0.00 in0.0 mm
12:06 AM 48.6°F9.2°C 45.8°F7.7°C 85% 6.0 mph NNE9.7 kmh NNE 12.0 mph19.3 kmh 30.11 in1019.6 mb 0.00 in0.0 mm 0.00 in0.0 mm 0.00 in0.0 mm
12:08 AM 48.6°F9.2°C 45.8°F7.7°C 85% 5.0 mph ENE8.0 kmh ENE 12.0 mph19.3 kmh 30.11 in1019.6 mb 0.00 in0.0 mm 0.00 in0.0 mm 0.00 in0.0 mm
12:10 AM 48.6°F9.2°C 45.8°F7.7°C 85% 6.0 mph ENE9.7 kmh ENE 12.0 mph19.3 kmh 30.11 in1019.6 mb 0.00 in0.0 mm 0.00 in0.0 mm 0.00 in0.0 mm
12:12 AM 48.7°F9.3°C 45.9°F7.7°C 85% 4.0 mph N6.4 kmh N 11.0 mph17.7 kmh 30.11 in1019.6 mb 0.00 in0.0 mm 0.00 in0.0 mm 0.00 in0.0 mm
12:14 AM 48.7°F9.3°C 45.9°F7.7°C 85% 3.0 mph N4.8 kmh N 11.0 mph17.7 kmh 30.11 in1019.6 mb 0.00 in0.0 mm 0.00 in0.0 mm 0.00 in0.0 mm
12:16 AM 48.8°F9.3°C 46.0°F7.8°C 85% 7.0 mph NE11.3 kmh NE 11.0 mph17.7 kmh 30.11 in1019.6 mb 0.00 in0.0 mm 0.00 in0.0 mm 0.00 in0.0 mm
12:18 AM 48.8°F9.3°C 46.0°F7.8°C 85% 5.0 mph ENE8.0 kmh ENE 11.0 mph17.7 kmh 30.11 in1019.6 mb 0.00 in0.0 mm 0.00 in0.0 mm 0.00 in0.0 mm
12:20 AM 48.8°F9.3°C 46.0°F7.8°C 85% 6.0 mph ESE9.7 kmh ESE 11.0 mph17.7 kmh 30.11 in1019.6 mb 0.00 in0.0 mm 0.00 in0.0 mm 0.00 in0.0 mm
12:22 AM 48.8°F9.3°C 46.0°F7.8°C 85% 2.0 mph NE3.2 kmh NE 11.0 mph17.7 kmh 30.11 in1019.6 mb 0.00 in0.0 mm 0.00 in0.0 mm 0.00 in0.0 mm
12:24 AM 48.9°F9.4°C 46.1°F7.8°C 85% 2.0 mph NNE3.2 kmh NNE 11.0 mph17.7 kmh 30.11 in1019.6 mb 0.00 in0.0 mm 0.00 in0.0 mm 0.00 in0.0 mm
12:26 AM 48.8°F9.3°C 46.0°F7.8°C 85% 3.0 mph NE4.8 kmh NE 11.0 mph17.7 kmh 30.11 in1019.6 mb 0.00 in0.0 mm 0.00 in0.0 mm 0.00 in0.0 mm
12:28 AM 48.9°F9.4°C 46.1°F7.8°C 85% 6.0 mph NE9.7 kmh NE 11.0 mph17.7 kmh 30.11 in1019.6 mb 0.00 in0.0 mm 0.00 in0.0 mm 0.00 in0.0 mm
12:30 AM 49.0°F9.4°C 46.2°F7.9°C 85% 4.0 mph NE6.4 kmh NE 12.0 mph19.3 kmh 30.11 in1019.6 mb 0.00 in0.0 mm 0.00 in0.0 mm 0.00 in0.0 mm
12:32 AM 49.0°F9.4°C 46.2°F7.9°C 85% 8.0 mph NE12.9 kmh NE 12.0 mph19.3 kmh 30.11 in1019.6 mb 0.00 in0.0 mm 0.00 in0.0 mm 0.00 in0.0 mm
12:34 AM 49.0°F9.4°C 46.2°F7.9°C 85% 1.0 mph NE1.6 kmh NE 12.0 mph19.3 kmh 30.11 in1019.6 mb 0.00 in0.0 mm 0.00 in0.0 mm 0.00 in0.0 mm
12:36 AM 48.9°F9.4°C 46.1°F7.8°C 85% 3.0 mph NE4.8 kmh NE 12.0 mph19.3 kmh 30.11 in1019.6 mb 0.00 in0.0 mm 0.00 in0.0 mm 0.00 in0.0 mm
12:38 AM 49.0°F9.4°C 46.2°F7.9°C 85% 5.0 mph NE8.0 kmh NE 13.0 mph20.9 kmh 30.11 in1019.6 mb 0.00 in0.0 mm 0.00 in0.0 mm 0.00 in0.0 mm
12:40 AM 49.0°F9.4°C 46.2°F7.9°C 85% 2.0 mph ENE3.2 kmh ENE 13.0 mph20.9 kmh 30.11 in1019.6 mb 0.00 in0.0 mm 0.00 in0.0 mm 0.00 in0.0 mm
12:42 AM 49.0°F9.4°C 46.2°F7.9°C 85% 2.0 mph E3.2 kmh E 13.0 mph20.9 kmh 30.11 in1019.6 mb 0.00 in0.0 mm 0.00 in0.0 mm 0.00 in0.0 mm
12:46 AM 49.0°F9.4°C 46.2°F7.9°C 85% 3.0 mph NE4.8 kmh NE 13.0 mph20.9 kmh 30.11 in1019.6 mb 0.00 in0.0 mm 0.00 in0.0 mm 0.00 in0.0 mm
12:48 AM 49.0°F9.4°C 46.2°F7.9°C 85% 3.0 mph NNE4.8 kmh NNE 13.0 mph20.9 kmh 30.11 in1019.6 mb 0.00 in0.0 mm 0.00 in0.0 mm 0.00 in0.0 mm
12:50 AM 49.0°F9.4°C 46.2°F7.9°C 85% 2.0 mph NE3.2 kmh NE 13.0 mph20.9 kmh 30.11 in1019.6 mb 0.00 in0.0 mm 0.00 in0.0 mm 0.00 in0.0 mm
12:52 AM 49.1°F9.5°C 46.3°F7.9°C 85% 4.0 mph NE6.4 kmh NE 13.0 mph20.9 kmh 30.11 in1019.6 mb 0.00 in0.0 mm 0.00 in0.0 mm 0.00 in0.0 mm
12:56 AM 49.1°F9.5°C 46.3°F7.9°C 85% 3.0 mph NE4.8 kmh NE 13.0 mph20.9 kmh 30.10 in1019.3 mb 0.00 in0.0 mm 0.00 in0.0 mm 0.00 in0.0 mm
01:00 AM 49.2°F9.6°C 46.7°F8.2°C 86% 3.0 mph NE4.8 kmh NE 7.0 mph11.3 kmh 30.09 in1019.0 mb 0.00 in0.0 mm 0.00 in0.0 mm 0.00 in0.0 mm
01:02 AM 49.2°F9.6°C 46.4°F8.0°C 85% 3.0 mph ENE4.8 kmh ENE 7.0 mph11.3 kmh 30.08 in1018.6 mb 0.00 in0.0 mm 0.00 in0.0 mm 0.00 in0.0 mm
01:04 AM 49.2°F9.6°C 46.7°F8.2°C 86% 2.0 mph NE3.2 kmh NE 7.0 mph11.3 kmh 30.08 in1018.6 mb 0.00 in0.0 mm 0.00 in0.0 mm 0.00 in0.0 mm
01:06 AM 49.3°F9.6°C 46.8°F8.2°C 86% 1.0 mph SSE1.6 kmh SSE 9.0 mph14.5 kmh 30.08 in1018.6 mb 0.00 in0.0 mm 0.00 in0.0 mm 0.00 in0.0 mm
01:08 AM 49.3°F9.6°C 46.8°F8.2°C 86% 1.0 mph NE1.6 kmh NE 9.0 mph14.5 kmh 30.08 in1018.6 mb 0.00 in0.0 mm 0.00 in0.0 mm 0.00 in0.0 mm
01:10 AM 49.3°F9.6°C 46.8°F8.2°C 86% 3.0 mph NE4.8 kmh NE 9.0 mph14.5 kmh 30.09 in1019.0 mb 0.00 in0.0 mm 0.00 in0.0 mm 0.00 in0.0 mm
01:12 AM 49.3°F9.6°C 46.8°F8.2°C 86% Calm Calm 9.0 mph14.5 kmh 30.09 in1019.0 mb 0.00 in0.0 mm 0.00 in0.0 mm 0.00 in0.0 mm
01:14 AM 49.3°F9.6°C 46.8°F8.2°C 86% 2.0 mph NE3.2 kmh NE 9.0 mph14.5 kmh 30.08 in1018.6 mb 0.00 in0.0 mm 0.00 in0.0 mm 0.00 in0.0 mm
01:16 AM 49.3°F9.6°C 46.8°F8.2°C 86% 2.0 mph NE3.2 kmh NE 9.0 mph14.5 kmh 30.08 in1018.6 mb 0.00 in0.0 mm 0.00 in0.0 mm 0.00 in0.0 mm
01:18 AM 49.3°F9.6°C 46.8°F8.2°C 86% 1.0 mph SE1.6 kmh SE 9.0 mph14.5 kmh 30.08 in1018.6 mb 0.00 in0.0 mm 0.00 in0.0 mm 0.00 in0.0 mm
01:20 AM 49.4°F9.7°C 46.9°F8.3°C 86% 1.0 mph ENE1.6 kmh ENE 9.0 mph14.5 kmh 30.08 in1018.6 mb 0.00 in0.0 mm 0.00 in0.0 mm 0.00 in0.0 mm
01:22 AM 49.4°F9.7°C 46.9°F8.3°C 86% Calm Calm 9.0 mph14.5 kmh 30.08 in1018.6 mb 0.00 in0.0 mm 0.00 in0.0 mm 0.00 in0.0 mm
01:24 AM 49.3°F9.6°C 46.8°F8.2°C 86% 2.0 mph ESE3.2 kmh ESE 9.0 mph14.5 kmh 30.09 in1019.0 mb 0.00 in0.0 mm 0.00 in0.0 mm 0.00 in0.0 mm
01:26 AM 49.4°F9.7°C 46.9°F8.3°C 86% 2.0 mph NE3.2 kmh NE 5.0 mph8.0 kmh 30.09 in1019.0 mb 0.00 in0.0 mm 0.00 in0.0 mm 0.00 in0.0 mm
01:28 AM 49.4°F9.7°C 46.9°F8.3°C 86% 1.0 mph ESE1.6 kmh ESE 5.0 mph8.0 kmh 30.09 in1019.0 mb 0.00 in0.0 mm 0.00 in0.0 mm 0.00 in0.0 mm
01:30 AM 49.4°F9.7°C 47.2°F8.4°C 87% 3.0 mph NE4.8 kmh NE 5.0 mph8.0 kmh 30.10 in1019.3 mb 0.00 in0.0 mm 0.00 in0.0 mm 0.00 in0.0 mm
01:32 AM 49.4°F9.7°C 47.2°F8.4°C 87% 1.0 mph E1.6 kmh E 5.0 mph8.0 kmh 30.11 in1019.6 mb 0.00 in0.0 mm 0.00 in0.0 mm 0.00 in0.0 mm
01:34 AM 49.5°F9.7°C 47.3°F8.5°C 87% 2.0 mph ENE3.2 kmh ENE 5.0 mph8.0 kmh 30.11 in1019.6 mb 0.00 in0.0 mm 0.00 in0.0 mm 0.00 in0.0 mm
01:36 AM 49.5°F9.7°C 47.3°F8.5°C 87% 1.0 mph ENE1.6 kmh ENE 4.0 mph6.4 kmh 30.11 in1019.6 mb 0.00 in0.0 mm 0.00 in0.0 mm 0.00 in0.0 mm
01:38 AM 49.4°F9.7°C 46.9°F8.3°C 86% Calm Calm 4.0 mph6.4 kmh 30.12 in1020.0 mb 0.00 in0.0 mm 0.00 in0.0 mm 0.00 in0.0 mm
01:40 AM 49.5°F9.7°C 47.0°F8.3°C 86% 1.0 mph ENE1.6 kmh ENE 4.0 mph6.4 kmh 30.12 in1020.0 mb 0.00 in0.0 mm 0.00 in0.0 mm 0.00 in0.0 mm
01:42 AM 49.4°F9.7°C 46.9°F8.3°C 86% Calm Calm 4.0 mph6.4 kmh 30.12 in1020.0 mb 0.00 in0.0 mm 0.00 in0.0 mm 0.00 in0.0 mm
01:44 AM 49.4°F9.7°C 46.9°F8.3°C 86% Calm Calm 4.0 mph6.4 kmh 30.11 in1019.6 mb 0.00 in0.0 mm 0.00 in0.0 mm 0.00 in0.0 mm
01:46 AM 49.4°F9.7°C 47.2°F8.4°C 87% 1.0 mph ESE1.6 kmh ESE 2.0 mph3.2 kmh 30.11 in1019.6 mb 0.00 in0.0 mm 0.00 in0.0 mm 0.00 in0.0 mm
01:48 AM 49.3°F9.6°C 47.1°F8.4°C 87% 1.0 mph E1.6 kmh E 3.0 mph4.8 kmh 30.11 in1019.6 mb 0.00 in0.0 mm 0.00 in0.0 mm 0.00 in0.0 mm
01:50 AM 49.3°F9.6°C 47.1°F8.4°C 87% 1.0 mph ESE1.6 kmh ESE 4.0 mph6.4 kmh 30.10 in1019.3 mb 0.00 in0.0 mm 0.00 in0.0 mm 0.00 in0.0 mm
01:52 AM 49.3°F9.6°C 47.1°F8.4°C 87% Calm Calm 4.0 mph6.4 kmh 30.10 in1019.3 mb 0.00 in0.0 mm 0.00 in0.0 mm 0.00 in0.0 mm
01:54 AM 49.2°F9.6°C 47.0°F8.3°C 87% 2.0 mph ESE3.2 kmh ESE 4.0 mph6.4 kmh 30.10 in1019.3 mb 0.00 in0.0 mm 0.00 in0.0 mm 0.00 in0.0 mm
01:56 AM 49.2°F9.6°C 47.0°F8.3°C 87% 2.0 mph E3.2 kmh E 4.0 mph6.4 kmh 30.10 in1019.3 mb 0.00 in0.0 mm 0.00 in0.0 mm 0.00 in0.0 mm
01:58 AM 49.2°F9.6°C 47.3°F8.5°C 88% 4.0 mph NE6.4 kmh NE 4.0 mph6.4 kmh 30.10 in1019.3 mb 0.00 in0.0 mm 0.00 in0.0 mm 0.00 in0.0 mm
02:00 AM 49.2°F9.6°C 47.3°F8.5°C 88% 3.0 mph NE4.8 kmh NE 5.0 mph8.0 kmh 30.10 in1019.3 mb 0.00 in0.0 mm 0.00 in0.0 mm 0.00 in0.0 mm
02:02 AM 49.2°F9.6°C 47.3°F8.5°C 88% 3.0 mph ENE4.8 kmh ENE 5.0 mph8.0 kmh 30.10 in1019.3 mb 0.00 in0.0 mm 0.00 in0.0 mm 0.00 in0.0 mm
02:04 AM 49.2°F9.6°C 47.3°F8.5°C 88% 3.0 mph ENE4.8 kmh ENE 5.0 mph8.0 kmh 30.10 in1019.3 mb 0.00 in0.0 mm 0.00 in0.0 mm 0.00 in0.0 mm
02:06 AM 49.2°F9.6°C 47.3°F8.5°C 88% 5.0 mph ENE8.0 kmh ENE 5.0 mph8.0 kmh 30.10 in1019.3 mb 0.00 in0.0 mm 0.00 in0.0 mm 0.00 in0.0 mm
02:08 AM 49.2°F9.6°C 47.3°F8.5°C 88% 2.0 mph NE3.2 kmh NE 5.0 mph8.0 kmh 30.10 in1019.3 mb 0.00 in0.0 mm 0.00 in0.0 mm 0.00 in0.0 mm
02:10 AM 49.2°F9.6°C 47.3°F8.5°C 88% 1.0 mph ENE1.6 kmh ENE 5.0 mph8.0 kmh 30.10 in1019.3 mb 0.00 in0.0 mm 0.00 in0.0 mm 0.00 in0.0 mm
02:12 AM 49.1°F9.5°C 47.2°F8.4°C 88% 4.0 mph NE6.4 kmh NE 6.0 mph9.7 kmh 30.10 in1019.3 mb 0.00 in0.0 mm 0.00 in0.0 mm 0.00 in0.0 mm
02:14 AM 49.1°F9.5°C 47.4°F8.6°C 89% 3.0 mph ENE4.8 kmh ENE 6.0 mph9.7 kmh 30.10 in1019.3 mb 0.00 in0.0 mm 0.00 in0.0 mm 0.00 in0.0 mm
02:16 AM 49.0°F9.4°C 47.3°F8.5°C 89% 3.0 mph NE4.8 kmh NE 6.0 mph9.7 kmh 30.10 in1019.3 mb 0.00 in0.0 mm 0.00 in0.0 mm 0.00 in0.0 mm
02:18 AM 49.1°F9.5°C 47.4°F8.6°C 89% 3.0 mph NE4.8 kmh NE 6.0 mph9.7 kmh 30.10 in1019.3 mb 0.00 in0.0 mm 0.00 in0.0 mm 0.00 in0.0 mm
02:20 AM 49.0°F9.4°C 47.3°F8.5°C 89% 3.0 mph NE4.8 kmh NE 6.0 mph9.7 kmh 30.10 in1019.3 mb 0.00 in0.0 mm 0.00 in0.0 mm 0.00 in0.0 mm
02:22 AM 49.0°F9.4°C 47.3°F8.5°C 89% 3.0 mph NE4.8 kmh NE 6.0 mph9.7 kmh 30.10 in1019.3 mb 0.00 in0.0 mm 0.00 in0.0 mm 0.00 in0.0 mm
02:24 AM 48.9°F9.4°C 47.2°F8.4°C 89% 3.0 mph NE4.8 kmh NE 6.0 mph9.7 kmh 30.10 in1019.3 mb 0.00 in0.0 mm 0.00 in0.0 mm 0.00 in0.0 mm
02:26 AM 48.8°F9.3°C 47.1°F8.4°C 89% 1.0 mph E1.6 kmh E 6.0 mph9.7 kmh 30.11 in1019.6 mb 0.00 in0.0 mm 0.00 in0.0 mm 0.00 in0.0 mm
02:28 AM 48.8°F9.3°C 47.1°F8.4°C 89% Calm Calm 6.0 mph9.7 kmh 30.11 in1019.6 mb 0.00 in0.0 mm 0.00 in0.0 mm 0.00 in0.0 mm
02:30 AM 48.8°F9.3°C 47.4°F8.6°C 90% 3.0 mph NE4.8 kmh NE 6.0 mph9.7 kmh 30.11 in1019.6 mb 0.00 in0.0 mm 0.00 in0.0 mm 0.00 in0.0 mm
02:32 AM 48.7°F9.3°C 47.3°F8.5°C 90% 1.0 mph NE1.6 kmh NE 4.0 mph6.4 kmh 30.11 in1019.6 mb 0.00 in0.0 mm 0.00 in0.0 mm 0.00 in0.0 mm
02:34 AM 48.7°F9.3°C 47.3°F8.5°C 90% 1.0 mph NE1.6 kmh NE 4.0 mph6.4 kmh 30.12 in1020.0 mb 0.00 in0.0 mm 0.00 in0.0 mm 0.00 in0.0 mm
02:36 AM 48.7°F9.3°C 47.3°F8.5°C 90% 2.0 mph NE3.2 kmh NE 4.0 mph6.4 kmh 30.11 in1019.6 mb 0.00 in0.0 mm 0.00 in0.0 mm 0.00 in0.0 mm
02:38 AM 48.7°F9.3°C 47.3°F8.5°C 90% 3.0 mph NE4.8 kmh NE 4.0 mph6.4 kmh 30.11 in1019.6 mb 0.00 in0.0 mm 0.00 in0.0 mm 0.00 in0.0 mm
02:40 AM 48.7°F9.3°C 47.3°F8.5°C 90% 2.0 mph NE3.2 kmh NE 4.0 mph6.4 kmh 30.12 in1020.0 mb 0.00 in0.0 mm 0.00 in0.0 mm 0.00 in0.0 mm
02:42 AM 48.7°F9.3°C 47.3°F8.5°C 90% 4.0 mph ENE6.4 kmh ENE 5.0 mph8.0 kmh 30.12 in1020.0 mb 0.00 in0.0 mm 0.00 in0.0 mm 0.00 in0.0 mm
02:44 AM 48.7°F9.3°C 47.3°F8.5°C 90% 4.0 mph ENE6.4 kmh ENE 7.0 mph11.3 kmh 30.12 in1020.0 mb 0.00 in0.0 mm 0.00 in0.0 mm 0.00 in0.0 mm
02:46 AM 48.7°F9.3°C 47.3°F8.5°C 90% 5.0 mph NE8.0 kmh NE 7.0 mph11.3 kmh 30.12 in1020.0 mb 0.00 in0.0 mm 0.00 in0.0 mm 0.00 in0.0 mm
02:48 AM 48.8°F9.3°C 47.4°F8.6°C 90% 1.0 mph NE1.6 kmh NE 7.0 mph11.3 kmh 30.12 in1020.0 mb 0.00 in0.0 mm 0.00 in0.0 mm 0.00 in0.0 mm
02:50 AM 48.8°F9.3°C 47.4°F8.6°C 90% Calm Calm 7.0 mph11.3 kmh 30.12 in1020.0 mb 0.00 in0.0 mm 0.00 in0.0 mm 0.00 in0.0 mm
02:52 AM 48.7°F9.3°C 47.3°F8.5°C 90% 1.0 mph E1.6 kmh E 7.0 mph11.3 kmh 30.12 in1020.0 mb 0.00 in0.0 mm 0.00 in0.0 mm 0.00 in0.0 mm
02:54 AM 48.7°F9.3°C 47.3°F8.5°C 90% 2.0 mph ENE3.2 kmh ENE 7.0 mph11.3 kmh 30.12 in1020.0 mb 0.00 in0.0 mm 0.00 in0.0 mm 0.00 in0.0 mm
02:56 AM 48.7°F9.3°C 47.3°F8.5°C 90% 2.0 mph NE3.2 kmh NE 7.0 mph11.3 kmh 30.12 in1020.0 mb 0.00 in0.0 mm 0.00 in0.0 mm 0.00 in0.0 mm
02:58 AM 48.7°F9.3°C 47.3°F8.5°C 90% 2.0 mph ENE3.2 kmh ENE 7.0 mph11.3 kmh 30.12 in1020.0 mb 0.00 in0.0 mm 0.00 in0.0 mm 0.00 in0.0 mm
03:00 AM 48.7°F9.3°C 47.3°F8.5°C 90% 1.0 mph NE1.6 kmh NE 7.0 mph11.3 kmh 30.12 in1020.0 mb 0.00 in0.0 mm 0.00 in0.0 mm 0.00 in0.0 mm
03:02 AM 48.7°F9.3°C 47.3°F8.5°C 90% 2.0 mph E3.2 kmh E 7.0 mph11.3 kmh 30.12 in1020.0 mb 0.00 in0.0 mm 0.00 in0.0 mm 0.00 in0.0 mm
03:04 AM 48.7°F9.3°C 47.3°F8.5°C 90% 2.0 mph NE3.2 kmh NE 7.0 mph11.3 kmh 30.12 in1020.0 mb 0.00 in0.0 mm 0.00 in0.0 mm 0.00 in0.0 mm
03:06 AM 48.7°F9.3°C 47.3°F8.5°C 90% 2.0 mph ENE3.2 kmh ENE 7.0 mph11.3 kmh 30.12 in1020.0 mb 0.00 in0.0 mm 0.00 in0.0 mm 0.00 in0.0 mm
03:08 AM 48.7°F9.3°C 47.3°F8.5°C 90% 2.0 mph NNE3.2 kmh NNE 7.0 mph11.3 kmh 30.12 in1020.0 mb 0.00 in0.0 mm 0.00 in0.0 mm 0.00 in0.0 mm
03:10 AM 48.6°F9.2°C 47.2°F8.4°C 90% 3.0 mph NE4.8 kmh NE 7.0 mph11.3 kmh 30.12 in1020.0 mb 0.00 in0.0 mm 0.00 in0.0 mm 0.00 in0.0 mm
03:12 AM 48.7°F9.3°C 47.3°F8.5°C 90% 1.0 mph NE1.6 kmh NE 7.0 mph11.3 kmh 30.12 in1020.0 mb 0.00 in0.0 mm 0.00 in0.0 mm 0.00 in0.0 mm
03:14 AM 48.7°F9.3°C 47.3°F8.5°C 90% 1.0 mph NE1.6 kmh NE 7.0 mph11.3 kmh 30.12 in1020.0 mb 0.00 in0.0 mm 0.00 in0.0 mm 0.00 in0.0 mm
03:16 AM 48.7°F9.3°C 47.3°F8.5°C 90% 3.0 mph NE4.8 kmh NE 7.0 mph11.3 kmh 30.12 in1020.0 mb 0.00 in0.0 mm 0.00 in0.0 mm 0.00 in0.0 mm
03:18 AM 48.6°F9.2°C 47.2°F8.4°C 90% 2.0 mph NE3.2 kmh NE 7.0 mph11.3 kmh 30.12 in1020.0 mb 0.00 in0.0 mm 0.00 in0.0 mm 0.00 in0.0 mm
03:20 AM 48.6°F9.2°C 47.2°F8.4°C 90% 3.0 mph NE4.8 kmh NE 4.0 mph6.4 kmh 30.12 in1020.0 mb 0.00 in0.0 mm 0.00 in0.0 mm 0.01 in0.3 mm
03:22 AM 48.6°F9.2°C 47.2°F8.4°C 90% 5.0 mph NE8.0 kmh NE 5.0 mph8.0 kmh 30.12 in1020.0 mb 0.00 in0.0 mm 0.00 in0.0 mm 0.01 in0.3 mm
03:24 AM 48.5°F9.2°C 47.1°F8.4°C 90% 2.0 mph NE3.2 kmh NE 5.0 mph8.0 kmh 30.12 in1020.0 mb 0.00 in0.0 mm 0.00 in0.0 mm 0.01 in0.3 mm
03:26 AM 48.6°F9.2°C 47.2°F8.4°C 90% 4.0 mph NE6.4 kmh NE 6.0 mph9.7 kmh 30.11 in1019.6 mb 0.00 in0.0 mm 0.00 in0.0 mm 0.01 in0.3 mm
03:28 AM 48.6°F9.2°C 47.0°F8.3°C 89% 1.0 mph NE1.6 kmh NE 6.0 mph9.7 kmh 30.11 in1019.6 mb 0.00 in0.0 mm 0.00 in0.0 mm 0.01 in0.3 mm
03:30 AM 48.6°F9.2°C 47.0°F8.3°C 89% 1.0 mph NE1.6 kmh NE 6.0 mph9.7 kmh 30.11 in1019.6 mb 0.00 in0.0 mm 0.00 in0.0 mm 0.01 in0.3 mm
03:32 AM 48.6°F9.2°C 47.0°F8.3°C 89% 2.0 mph NE3.2 kmh NE 6.0 mph9.7 kmh 30.11 in1019.6 mb 0.00 in0.0 mm 0.00 in0.0 mm 0.01 in0.3 mm
03:34 AM 48.6°F9.2°C 47.0°F8.3°C 89% 1.0 mph NE1.6 kmh NE 6.0 mph9.7 kmh 30.11 in1019.6 mb 0.00 in0.0 mm 0.00 in0.0 mm 0.01 in0.3 mm
03:36 AM 48.6°F9.2°C 47.0°F8.3°C 89% 2.0 mph NE3.2 kmh NE 6.0 mph9.7 kmh 30.11 in1019.6 mb 0.00 in0.0 mm 0.00 in0.0 mm 0.01 in0.3 mm
03:38 AM 48.6°F9.2°C 47.0°F8.3°C 89% 2.0 mph NE3.2 kmh NE 6.0 mph9.7 kmh 30.11 in1019.6 mb 0.00 in0.0 mm 0.00 in0.0 mm 0.01 in0.3 mm
03:40 AM 48.7°F9.3°C 47.1°F8.4°C 89% 2.0 mph E3.2 kmh E 6.0 mph9.7 kmh 30.11 in1019.6 mb 0.00 in0.0 mm 0.00 in0.0 mm 0.01 in0.3 mm
03:42 AM 48.7°F9.3°C 47.1°F8.4°C 89% Calm Calm 6.0 mph9.7 kmh 30.11 in1019.6 mb 0.00 in0.0 mm 0.00 in0.0 mm 0.01 in0.3 mm
03:44 AM 48.7°F9.3°C 47.1°F8.4°C 89% Calm Calm 6.0 mph9.7 kmh 30.11 in1019.6 mb 0.00 in0.0 mm 0.00 in0.0 mm 0.01 in0.3 mm
03:46 AM 48.7°F9.3°C 47.1°F8.4°C 89% 2.0 mph ENE3.2 kmh ENE 6.0 mph9.7 kmh 30.11 in1019.6 mb 0.00 in0.0 mm 0.00 in0.0 mm 0.01 in0.3 mm
03:48 AM 48.7°F9.3°C 47.1°F8.4°C 89% 1.0 mph ESE1.6 kmh ESE 6.0 mph9.7 kmh 30.11 in1019.6 mb 0.00 in0.0 mm 0.00 in0.0 mm 0.01 in0.3 mm
03:50 AM 48.6°F9.2°C 47.2°F8.4°C 90% 1.0 mph E1.6 kmh E 6.0 mph9.7 kmh 30.11 in1019.6 mb 0.00 in0.0 mm 0.00 in0.0 mm 0.01 in0.3 mm
03:52 AM 48.6°F9.2°C 47.2°F8.4°C 90% 2.0 mph ENE3.2 kmh ENE 6.0 mph9.7 kmh 30.10 in1019.3 mb 0.00 in0.0 mm 0.00 in0.0 mm 0.01 in0.3 mm
03:54 AM 48.6°F9.2°C 47.2°F8.4°C 90% 7.0 mph E11.3 kmh E 7.0 mph11.3 kmh 30.10 in1019.3 mb 0.00 in0.0 mm 0.00 in0.0 mm 0.01 in0.3 mm
03:56 AM 48.5°F9.2°C 47.1°F8.4°C 90% 6.0 mph ENE9.7 kmh ENE 7.0 mph11.3 kmh 30.10 in1019.3 mb 0.00 in0.0 mm 0.00 in0.0 mm 0.01 in0.3 mm
03:58 AM 48.5°F9.2°C 47.1°F8.4°C 90% 1.0 mph NE1.6 kmh NE 9.0 mph14.5 kmh 30.09 in1019.0 mb 0.00 in0.0 mm 0.00 in0.0 mm 0.01 in0.3 mm
04:00 AM 48.5°F9.2°C 47.1°F8.4°C 90% 3.0 mph NE4.8 kmh NE 9.0 mph14.5 kmh 30.09 in1019.0 mb 0.00 in0.0 mm 0.00 in0.0 mm 0.01 in0.3 mm
04:02 AM 48.4°F9.1°C 47.0°F8.3°C 90% 1.0 mph NE1.6 kmh NE 9.0 mph14.5 kmh 30.09 in1019.0 mb 0.00 in0.0 mm 0.00 in0.0 mm 0.01 in0.3 mm
04:04 AM 48.4°F9.1°C 47.0°F8.3°C 90% 1.0 mph E1.6 kmh E 9.0 mph14.5 kmh 30.09 in1019.0 mb 0.00 in0.0 mm 0.00 in0.0 mm 0.01 in0.3 mm
04:06 AM 48.4°F9.1°C 47.0°F8.3°C 90% 1.0 mph NE1.6 kmh NE 9.0 mph14.5 kmh 30.09 in1019.0 mb 0.00 in0.0 mm 0.00 in0.0 mm 0.01 in0.3 mm
04:08 AM 48.2°F9.0°C 46.8°F8.2°C 90% 4.0 mph NE6.4 kmh NE 9.0 mph14.5 kmh 30.09 in1019.0 mb 0.00 in0.0 mm 0.00 in0.0 mm 0.01 in0.3 mm
04:10 AM 48.2°F9.0°C 46.8°F8.2°C 90% 3.0 mph ENE4.8 kmh ENE 9.0 mph14.5 kmh 30.09 in1019.0 mb 0.00 in0.0 mm 0.00 in0.0 mm 0.01 in0.3 mm
04:12 AM 48.1°F8.9°C 46.7°F8.2°C 90% 3.0 mph NE4.8 kmh NE 9.0 mph14.5 kmh 30.09 in1019.0 mb 0.00 in0.0 mm 0.00 in0.0 mm 0.01 in0.3 mm
04:14 AM 48.0°F8.9°C 46.6°F8.1°C 90% 3.0 mph NE4.8 kmh NE 9.0 mph14.5 kmh 30.09 in1019.0 mb 0.00 in0.0 mm 0.00 in0.0 mm 0.01 in0.3 mm
04:16 AM 47.9°F8.8°C 46.5°F8.1°C 90% 4.0 mph NE6.4 kmh NE 9.0 mph14.5 kmh 30.09 in1019.0 mb 0.00 in0.0 mm 0.00 in0.0 mm 0.01 in0.3 mm
04:18 AM 47.9°F8.8°C 46.5°F8.1°C 90% 5.0 mph NE8.0 kmh NE 9.0 mph14.5 kmh 30.09 in1019.0 mb 0.00 in0.0 mm 0.00 in0.0 mm 0.01 in0.3 mm
04:20 AM 47.9°F8.8°C 46.5°F8.1°C 90% 3.0 mph NE4.8 kmh NE 9.0 mph14.5 kmh 30.08 in1018.6 mb 0.00 in0.0 mm 0.00 in0.0 mm 0.01 in0.3 mm
04:22 AM 47.8°F8.8°C 46.4°F8.0°C 90% 4.0 mph NE6.4 kmh NE 9.0 mph14.5 kmh 30.08 in1018.6 mb 0.00 in0.0 mm 0.00 in0.0 mm 0.01 in0.3 mm
04:24 AM 47.8°F8.8°C 46.4°F8.0°C 90% 3.0 mph NE4.8 kmh NE 9.0 mph14.5 kmh 30.08 in1018.6 mb 0.00 in0.0 mm 0.00 in0.0 mm 0.01 in0.3 mm
04:26 AM 47.7°F8.7°C 46.3°F7.9°C 90% 4.0 mph NE6.4 kmh NE 9.0 mph14.5 kmh 30.08 in1018.6 mb 0.00 in0.0 mm 0.00 in0.0 mm 0.01 in0.3 mm
04:28 AM 47.8°F8.8°C 46.4°F8.0°C 90% 4.0 mph NE6.4 kmh NE 9.0 mph14.5 kmh 30.08 in1018.6 mb 0.00 in0.0 mm 0.00 in0.0 mm 0.01 in0.3 mm
04:30 AM 47.7°F8.7°C 46.3°F7.9°C 90% 3.0 mph NE4.8 kmh NE 9.0 mph14.5 kmh 30.08 in1018.6 mb 0.00 in0.0 mm 0.00 in0.0 mm 0.01 in0.3 mm
04:32 AM 47.7°F8.7°C 46.3°F7.9°C 90% 4.0 mph NE6.4 kmh NE 9.0 mph14.5 kmh 30.08 in1018.6 mb 0.00 in0.0 mm 0.00 in0.0 mm 0.01 in0.3 mm
04:34 AM 47.8°F8.8°C 46.4°F8.0°C 90% 4.0 mph NE6.4 kmh NE 6.0 mph9.7 kmh 30.08 in1018.6 mb 0.00 in0.0 mm 0.00 in0.0 mm 0.01 in0.3 mm
04:36 AM 47.8°F8.8°C 46.4°F8.0°C 90% 4.0 mph NE6.4 kmh NE 7.0 mph11.3 kmh 30.08 in1018.6 mb 0.00 in0.0 mm 0.00 in0.0 mm 0.01 in0.3 mm
04:38 AM 47.9°F8.8°C 46.5°F8.1°C 90% 3.0 mph NE4.8 kmh NE 7.0 mph11.3 kmh 30.08 in1018.6 mb 0.00 in0.0 mm 0.00 in0.0 mm 0.01 in0.3 mm
04:40 AM 47.9°F8.8°C 46.5°F8.1°C 90% 2.0 mph NE3.2 kmh NE 7.0 mph11.3 kmh 30.08 in1018.6 mb 0.00 in0.0 mm 0.00 in0.0 mm 0.01 in0.3 mm
04:42 AM 47.9°F8.8°C 46.5°F8.1°C 90% 2.0 mph NE3.2 kmh NE 7.0 mph11.3 kmh 30.07 in1018.3 mb 0.00 in0.0 mm 0.00 in0.0 mm 0.01 in0.3 mm
04:44 AM 47.9°F8.8°C 46.5°F8.1°C 90% 2.0 mph E3.2 kmh E 7.0 mph11.3 kmh 30.07 in1018.3 mb 0.00 in0.0 mm 0.00 in0.0 mm 0.01 in0.3 mm
04:46 AM 47.9°F8.8°C 46.5°F8.1°C 90% 2.0 mph E3.2 kmh E 7.0 mph11.3 kmh 30.07 in1018.3 mb 0.00 in0.0 mm 0.00 in0.0 mm 0.01 in0.3 mm
04:48 AM 47.9°F8.8°C 46.5°F8.1°C 90% 4.0 mph NE6.4 kmh NE 7.0 mph11.3 kmh 30.07 in1018.3 mb 0.00 in0.0 mm 0.00 in0.0 mm 0.01 in0.3 mm
04:50 AM 47.9°F8.8°C 46.5°F8.1°C 90% 4.0 mph NE6.4 kmh NE 7.0 mph11.3 kmh 30.07 in1018.3 mb 0.00 in0.0 mm 0.00 in0.0 mm 0.01 in0.3 mm
04:52 AM 48.0°F8.9°C 46.4°F8.0°C 89% 4.0 mph NE6.4 kmh NE 8.0 mph12.9 kmh 30.07 in1018.3 mb 0.00 in0.0 mm 0.00 in0.0 mm 0.01 in0.3 mm
04:54 AM 48.0°F8.9°C 46.4°F8.0°C 89% 4.0 mph NE6.4 kmh NE 8.0 mph12.9 kmh 30.07 in1018.3 mb 0.00 in0.0 mm 0.00 in0.0 mm 0.01 in0.3 mm
04:56 AM 48.0°F8.9°C 46.4°F8.0°C 89% 5.0 mph NE8.0 kmh NE 8.0 mph12.9 kmh 30.07 in1018.3 mb 0.00 in0.0 mm 0.00 in0.0 mm 0.01 in0.3 mm
04:58 AM 48.1°F8.9°C 46.5°F8.1°C 89% 2.0 mph ENE3.2 kmh ENE 8.0 mph12.9 kmh 30.07 in1018.3 mb 0.00 in0.0 mm 0.00 in0.0 mm 0.01 in0.3 mm
05:00 AM 48.0°F8.9°C 46.4°F8.0°C 89% 2.0 mph NNE3.2 kmh NNE 8.0 mph12.9 kmh 30.07 in1018.3 mb 0.00 in0.0 mm 0.00 in0.0 mm 0.01 in0.3 mm
05:02 AM 48.0°F8.9°C 46.4°F8.0°C 89% 11.0 mph N17.7 kmh N 11.0 mph17.7 kmh 30.07 in1018.3 mb 0.00 in0.0 mm 0.00 in0.0 mm 0.01 in0.3 mm
05:04 AM 48.0°F8.9°C 46.4°F8.0°C 89% 4.0 mph NE6.4 kmh NE 13.0 mph20.9 kmh 30.07 in1018.3 mb 0.00 in0.0 mm 0.00 in0.0 mm 0.01 in0.3 mm
05:06 AM 48.1°F8.9°C 46.5°F8.1°C 89% 2.0 mph NE3.2 kmh NE 13.0 mph20.9 kmh 30.06 in1017.9 mb 0.00 in0.0 mm 0.00 in0.0 mm 0.01 in0.3 mm
05:08 AM 48.0°F8.9°C 46.4°F8.0°C 89% 2.0 mph NE3.2 kmh NE 13.0 mph20.9 kmh 30.06 in1017.9 mb 0.00 in0.0 mm 0.00 in0.0 mm 0.01 in0.3 mm
05:10 AM 48.0°F8.9°C 46.4°F8.0°C 89% 3.0 mph NE4.8 kmh NE 13.0 mph20.9 kmh 30.06 in1017.9 mb 0.00 in0.0 mm 0.00 in0.0 mm 0.01 in0.3 mm
05:12 AM 48.0°F8.9°C 46.4°F8.0°C 89% 4.0 mph NNE6.4 kmh NNE 13.0 mph20.9 kmh 30.06 in1017.9 mb 0.00 in0.0 mm 0.00 in0.0 mm 0.01 in0.3 mm
05:14 AM 48.0°F8.9°C 46.4°F8.0°C 89% 2.0 mph NE3.2 kmh NE 13.0 mph20.9 kmh 30.06 in1017.9 mb 0.00 in0.0 mm 0.00 in0.0 mm 0.01 in0.3 mm
05:16 AM 48.0°F8.9°C 46.4°F8.0°C 89% 3.0 mph NE4.8 kmh NE 13.0 mph20.9 kmh 30.06 in1017.9 mb 0.00 in0.0 mm 0.00 in0.0 mm 0.01 in0.3 mm
05:18 AM 48.0°F8.9°C 46.4°F8.0°C 89% 4.0 mph NNE6.4 kmh NNE 13.0 mph20.9 kmh 30.06 in1017.9 mb 0.00 in0.0 mm 0.00 in0.0 mm 0.01 in0.3 mm
05:20 AM 48.0°F8.9°C 46.4°F8.0°C 89% 5.0 mph N8.0 kmh N 13.0 mph20.9 kmh 30.06 in1017.9 mb 0.00 in0.0 mm 0.00 in0.0 mm 0.01 in0.3 mm
05:22 AM 48.0°F8.9°C 46.4°F8.0°C 89% 2.0 mph E3.2 kmh E 13.0 mph20.9 kmh 30.06 in1017.9 mb 0.00 in0.0 mm 0.00 in0.0 mm 0.01 in0.3 mm
05:24 AM 48.0°F8.9°C 46.4°F8.0°C 89% 1.0 mph NE1.6 kmh NE 11.0 mph17.7 kmh 30.05 in1017.6 mb 0.00 in0.0 mm 0.00 in0.0 mm 0.01 in0.3 mm
05:26 AM 48.0°F8.9°C 46.4°F8.0°C 89% 3.0 mph NNE4.8 kmh NNE 11.0 mph17.7 kmh 30.05 in1017.6 mb 0.00 in0.0 mm 0.00 in0.0 mm 0.01 in0.3 mm
05:28 AM 48.0°F8.9°C 46.4°F8.0°C 89% 5.0 mph NNE8.0 kmh NNE 11.0 mph17.7 kmh 30.05 in1017.6 mb 0.00 in0.0 mm 0.00 in0.0 mm 0.01 in0.3 mm
05:30 AM 48.1°F8.9°C 46.5°F8.1°C 89% 6.0 mph NE9.7 kmh NE 11.0 mph17.7 kmh 30.05 in1017.6 mb 0.00 in0.0 mm 0.00 in0.0 mm 0.01 in0.3 mm
05:32 AM 48.1°F8.9°C 46.2°F7.9°C 88% 3.0 mph NE4.8 kmh NE 11.0 mph17.7 kmh 30.05 in1017.6 mb 0.00 in0.0 mm 0.00 in0.0 mm 0.01 in0.3 mm
05:34 AM 48.2°F9.0°C 46.3°F7.9°C 88% 5.0 mph NE8.0 kmh NE 11.0 mph17.7 kmh 30.06 in1017.9 mb 0.00 in0.0 mm 0.00 in0.0 mm 0.01 in0.3 mm
05:36 AM 48.2°F9.0°C 46.3°F7.9°C 88% 4.0 mph NE6.4 kmh NE 11.0 mph17.7 kmh 30.05 in1017.6 mb 0.00 in0.0 mm 0.00 in0.0 mm 0.01 in0.3 mm
05:38 AM 48.2°F9.0°C 46.3°F7.9°C 88% 5.0 mph NE8.0 kmh NE 11.0 mph17.7 kmh 30.05 in1017.6 mb 0.00 in0.0 mm 0.00 in0.0 mm 0.01 in0.3 mm
05:40 AM 48.2°F9.0°C 46.3°F7.9°C 88% 2.0 mph E3.2 kmh E 11.0 mph17.7 kmh 30.06 in1017.9 mb 0.00 in0.0 mm 0.00 in0.0 mm 0.01 in0.3 mm
05:42 AM 48.2°F9.0°C 46.3°F7.9°C 88% 4.0 mph NE6.4 kmh NE 11.0 mph17.7 kmh 30.06 in1017.9 mb 0.00 in0.0 mm 0.00 in0.0 mm 0.01 in0.3 mm
05:44 AM 48.3°F9.1°C 46.4°F8.0°C 88% 3.0 mph ENE4.8 kmh ENE 11.0 mph17.7 kmh 30.06 in1017.9 mb 0.00 in0.0 mm 0.00 in0.0 mm 0.01 in0.3 mm
05:46 AM 48.2°F9.0°C 46.3°F7.9°C 88% 5.0 mph N8.0 kmh N 11.0 mph17.7 kmh 30.05 in1017.6 mb 0.00 in0.0 mm 0.00 in0.0 mm 0.01 in0.3 mm
05:48 AM 48.3°F9.1°C 46.4°F8.0°C 88% 4.0 mph NE6.4 kmh NE 11.0 mph17.7 kmh 30.05 in1017.6 mb 0.00 in0.0 mm 0.00 in0.0 mm 0.01 in0.3 mm
05:50 AM 48.3°F9.1°C 46.4°F8.0°C 88% 3.0 mph NE4.8 kmh NE 10.0 mph16.1 kmh 30.05 in1017.6 mb 0.00 in0.0 mm 0.00 in0.0 mm 0.01 in0.3 mm
05:52 AM 48.2°F9.0°C 46.3°F7.9°C 88% 5.0 mph NNE8.0 kmh NNE 12.0 mph19.3 kmh 30.06 in1017.9 mb 0.00 in0.0 mm 0.00 in0.0 mm 0.01 in0.3 mm
05:54 AM 48.3°F9.1°C 46.4°F8.0°C 88% 2.0 mph NE3.2 kmh NE 12.0 mph19.3 kmh 30.06 in1017.9 mb 0.00 in0.0 mm 0.00 in0.0 mm 0.01 in0.3 mm
05:56 AM 48.2°F9.0°C 46.3°F7.9°C 88% 2.0 mph ENE3.2 kmh ENE 12.0 mph19.3 kmh 30.06 in1017.9 mb 0.00 in0.0 mm 0.00 in0.0 mm 0.01 in0.3 mm
05:58 AM 48.2°F9.0°C 46.3°F7.9°C 88% 5.0 mph ENE8.0 kmh ENE 12.0 mph19.3 kmh 30.06 in1017.9 mb 0.00 in0.0 mm 0.00 in0.0 mm 0.01 in0.3 mm
06:00 AM 48.2°F9.0°C 46.3°F7.9°C 88% 1.0 mph NE1.6 kmh NE 12.0 mph19.3 kmh 30.06 in1017.9 mb 0.00 in0.0 mm 0.00 in0.0 mm 0.01 in0.3 mm
06:02 AM 48.2°F9.0°C 46.3°F7.9°C 88% 6.0 mph NE9.7 kmh NE 12.0 mph19.3 kmh 30.06 in1017.9 mb 0.00 in0.0 mm 0.00 in0.0 mm 0.01 in0.3 mm
06:04 AM 48.2°F9.0°C 46.3°F7.9°C 88% 3.0 mph NE4.8 kmh NE 12.0 mph19.3 kmh 30.05 in1017.6 mb 0.00 in0.0 mm 0.00 in0.0 mm 0.01 in0.3 mm
06:06 AM 48.1°F8.9°C 46.2°F7.9°C 88% 4.0 mph NNE6.4 kmh NNE 12.0 mph19.3 kmh 30.05 in1017.6 mb 0.00 in0.0 mm 0.00 in0.0 mm 0.01 in0.3 mm
06:08 AM 48.1°F8.9°C 46.2°F7.9°C 88% 5.0 mph NE8.0 kmh NE 12.0 mph19.3 kmh 30.05 in1017.6 mb 0.00 in0.0 mm 0.00 in0.0 mm 0.01 in0.3 mm
06:10 AM 48.0°F8.9°C 46.1°F7.8°C 88% 4.0 mph NE6.4 kmh NE 12.0 mph19.3 kmh 30.05 in1017.6 mb 0.00 in0.0 mm 0.00 in0.0 mm 0.01 in0.3 mm
06:12 AM 48.0°F8.9°C 46.1°F7.8°C 88% 2.0 mph ENE3.2 kmh ENE 11.0 mph17.7 kmh 30.06 in1017.9 mb 0.00 in0.0 mm 0.00 in0.0 mm 0.01 in0.3 mm
06:14 AM 48.0°F8.9°C 46.1°F7.8°C 88% 5.0 mph NE8.0 kmh NE 11.0 mph17.7 kmh 30.06 in1017.9 mb 0.00 in0.0 mm 0.00 in0.0 mm 0.01 in0.3 mm
06:16 AM 48.0°F8.9°C 46.1°F7.8°C 88% 4.0 mph 6.4 kmh 11.0 mph17.7 kmh 30.06 in1017.9 mb 0.00 in0.0 mm 0.00 in0.0 mm 0.01 in0.3 mm
06:18 AM 47.9°F8.8°C 45.7°F7.6°C 87% 6.0 mph NE9.7 kmh NE 11.0 mph17.7 kmh 30.06 in1017.9 mb 0.00 in0.0 mm 0.00 in0.0 mm 0.01 in0.3 mm
06:20 AM 47.9°F8.8°C 45.7°F7.6°C 87% 4.0 mph NE6.4 kmh NE 11.0 mph17.7 kmh 30.05 in1017.6 mb 0.00 in0.0 mm 0.00 in0.0 mm 0.01 in0.3 mm
06:22 AM 47.9°F8.8°C 45.7°F7.6°C 87% 5.0 mph NNE8.0 kmh NNE 8.0 mph12.9 kmh 30.06 in1017.9 mb 0.00 in0.0 mm 0.00 in0.0 mm 0.01 in0.3 mm
06:24 AM 47.9°F8.8°C 45.7°F7.6°C 87% 3.0 mph ENE4.8 kmh ENE 8.0 mph12.9 kmh 30.05 in1017.6 mb 0.00 in0.0 mm 0.00 in0.0 mm 0.01 in0.3 mm
06:26 AM 48.0°F8.9°C 45.8°F7.7°C 87% 9.0 mph NE14.5 kmh NE 14.0 mph22.5 kmh 30.05 in1017.6 mb 0.00 in0.0 mm 0.00 in0.0 mm 0.01 in0.3 mm
06:28 AM 48.0°F8.9°C 45.8°F7.7°C 87% 6.0 mph NE9.7 kmh NE 14.0 mph22.5 kmh 30.05 in1017.6 mb 0.00 in0.0 mm 0.00 in0.0 mm 0.01 in0.3 mm
06:30 AM 48.0°F8.9°C 45.8°F7.7°C 87% 2.0 mph NE3.2 kmh NE 14.0 mph22.5 kmh 30.05 in1017.6 mb 0.00 in0.0 mm 0.00 in0.0 mm 0.01 in0.3 mm
06:32 AM 48.0°F8.9°C 45.8°F7.7°C 87% 6.0 mph ENE9.7 kmh ENE 14.0 mph22.5 kmh 30.05 in1017.6 mb 0.00 in0.0 mm 0.00 in0.0 mm 0.01 in0.3 mm
06:34 AM 48.0°F8.9°C 45.8°F7.7°C 87% 4.0 mph NE6.4 kmh NE 14.0 mph22.5 kmh 30.05 in1017.6 mb 0.00 in0.0 mm 0.00 in0.0 mm 0.01 in0.3 mm
06:36 AM 47.9°F8.8°C 45.7°F7.6°C 87% 3.0 mph E4.8 kmh E 14.0 mph22.5 kmh 30.05 in1017.6 mb 0.00 in0.0 mm 0.00 in0.0 mm 0.01 in0.3 mm
06:38 AM 47.9°F8.8°C 45.7°F7.6°C 87% 5.0 mph NE8.0 kmh NE 14.0 mph22.5 kmh 30.05 in1017.6 mb 0.00 in0.0 mm 0.00 in0.0 mm 0.01 in0.3 mm
06:40 AM 48.0°F8.9°C 45.8°F7.7°C 87% 5.0 mph NE8.0 kmh NE 14.0 mph22.5 kmh 30.05 in1017.6 mb 0.00 in0.0 mm 0.00 in0.0 mm 0.01 in0.3 mm
06:42 AM 47.9°F8.8°C 45.7°F7.6°C 87% 4.0 mph ENE6.4 kmh ENE 14.0 mph22.5 kmh 30.05 in1017.6 mb 0.00 in0.0 mm 0.00 in0.0 mm 0.01 in0.3 mm
06:44 AM 47.9°F8.8°C 45.7°F7.6°C 87% 4.0 mph NNE6.4 kmh NNE 14.0 mph22.5 kmh 30.05 in1017.6 mb 0.00 in0.0 mm 0.00 in0.0 mm 0.01 in0.3 mm
06:46 AM 47.9°F8.8°C 45.7°F7.6°C 87% 9.0 mph NE14.5 kmh NE 12.0 mph19.3 kmh 30.06 in1017.9 mb 0.00 in0.0 mm 0.00 in0.0 mm 0.01 in0.3 mm
06:48 AM 47.9°F8.8°C 45.7°F7.6°C 87% 4.0 mph NE6.4 kmh NE 12.0 mph19.3 kmh 30.06 in1017.9 mb 0.00 in0.0 mm 0.00 in0.0 mm 0.01 in0.3 mm
06:50 AM 47.8°F8.8°C 45.6°F7.6°C 87% 4.0 mph NE6.4 kmh NE 12.0 mph19.3 kmh 30.05 in1017.6 mb 0.00 in0.0 mm 0.00 in0.0 mm 0.01 in0.3 mm
06:52 AM 47.8°F8.8°C 45.6°F7.6°C 87% 5.0 mph NE8.0 kmh NE 13.0 mph20.9 kmh 30.05 in1017.6 mb 0.00 in0.0 mm 0.00 in0.0 mm 0.01 in0.3 mm
06:54 AM 47.8°F8.8°C 45.6°F7.6°C 87% 3.0 mph NE4.8 kmh NE 13.0 mph20.9 kmh 30.05 in1017.6 mb 0.00 in0.0 mm 0.00 in0.0 mm 0.01 in0.3 mm
06:56 AM 47.8°F8.8°C 45.6°F7.6°C 87% 6.0 mph NE9.7 kmh NE 13.0 mph20.9 kmh 30.05 in1017.6 mb 0.00 in0.0 mm 0.00 in0.0 mm 0.01 in0.3 mm
06:58 AM 47.8°F8.8°C 45.6°F7.6°C 87% 6.0 mph NE9.7 kmh NE 13.0 mph20.9 kmh 30.05 in1017.6 mb 0.00 in0.0 mm 0.00 in0.0 mm 0.01 in0.3 mm
07:00 AM 47.8°F8.8°C 45.6°F7.6°C 87% 4.0 mph NE6.4 kmh NE 13.0 mph20.9 kmh 30.05 in1017.6 mb 0.00 in0.0 mm 0.00 in0.0 mm 0.01 in0.3 mm
07:02 AM 47.8°F8.8°C 45.6°F7.6°C 87% 7.0 mph NNE11.3 kmh NNE 13.0 mph20.9 kmh 30.05 in1017.6 mb 0.00 in0.0 mm 0.00 in0.0 mm 0.01 in0.3 mm
07:04 AM 47.8°F8.8°C 45.6°F7.6°C 87% 4.0 mph NE6.4 kmh NE 13.0 mph20.9 kmh 30.05 in1017.6 mb 0.00 in0.0 mm 0.00 in0.0 mm 0.01 in0.3 mm
07:06 AM 47.7°F8.7°C 45.5°F7.5°C 87% 3.0 mph ENE4.8 kmh ENE 13.0 mph20.9 kmh 30.05 in1017.6 mb 0.00 in0.0 mm 0.00 in0.0 mm 0.01 in0.3 mm
07:08 AM 47.7°F8.7°C 45.5°F7.5°C 87% 10.0 mph NE16.1 kmh NE 13.0 mph20.9 kmh 30.05 in1017.6 mb 0.00 in0.0 mm 0.00 in0.0 mm 0.01 in0.3 mm
07:10 AM 47.7°F8.7°C 45.5°F7.5°C 87% 5.0 mph ENE8.0 kmh ENE 13.0 mph20.9 kmh 30.06 in1017.9 mb 0.00 in0.0 mm 0.00 in0.0 mm 0.01 in0.3 mm
07:12 AM 47.6°F8.7°C 45.4°F7.4°C 87% 3.0 mph NE4.8 kmh NE 11.0 mph17.7 kmh 30.06 in1017.9 mb 0.00 in0.0 mm 0.00 in0.0 mm 0.01 in0.3 mm
07:14 AM 47.7°F8.7°C 45.5°F7.5°C 87% 3.0 mph ENE4.8 kmh ENE 11.0 mph17.7 kmh 30.06 in1017.9 mb 0.00 in0.0 mm 0.00 in0.0 mm 0.01 in0.3 mm
07:16 AM 47.7°F8.7°C 45.8°F7.7°C 88% 2.0 mph E3.2 kmh E 11.0 mph17.7 kmh 30.06 in1017.9 mb 0.00 in0.0 mm 0.00 in0.0 mm 0.01 in0.3 mm
07:18 AM 47.7°F8.7°C 45.8°F7.7°C 88% 3.0 mph E4.8 kmh E 11.0 mph17.7 kmh 30.06 in1017.9 mb 0.00 in0.0 mm 0.00 in0.0 mm 0.01 in0.3 mm
07:20 AM 47.8°F8.8°C 45.9°F7.7°C 88% 5.0 mph NE8.0 kmh NE 11.0 mph17.7 kmh 30.06 in1017.9 mb 0.00 in0.0 mm 0.00 in0.0 mm 0.01 in0.3 mm
07:22 AM 47.8°F8.8°C 45.9°F7.7°C 88% 2.0 mph NE3.2 kmh NE 9.0 mph14.5 kmh 30.06 in1017.9 mb 0.00 in0.0 mm 0.00 in0.0 mm 0.01 in0.3 mm
07:24 AM 47.9°F8.8°C 46.0°F7.8°C 88% 5.0 mph NE8.0 kmh NE 9.0 mph14.5 kmh 30.06 in1017.9 mb 0.00 in0.0 mm 0.00 in0.0 mm 0.01 in0.3 mm
07:26 AM 47.9°F8.8°C 46.0°F7.8°C 88% 5.0 mph NE8.0 kmh NE 9.0 mph14.5 kmh 30.07 in1018.3 mb 0.00 in0.0 mm 0.00 in0.0 mm 0.01 in0.3 mm
07:28 AM 48.0°F8.9°C 46.1°F7.8°C 88% 6.0 mph 9.7 kmh 9.0 mph14.5 kmh 30.07 in1018.3 mb 0.00 in0.0 mm 0.00 in0.0 mm 0.01 in0.3 mm
07:30 AM 48.0°F8.9°C 46.1°F7.8°C 88% 1.0 mph ENE1.6 kmh ENE 9.0 mph14.5 kmh 30.07 in1018.3 mb 0.00 in0.0 mm 0.00 in0.0 mm 0.01 in0.3 mm
07:32 AM 48.1°F8.9°C 46.2°F7.9°C 88% 7.0 mph E11.3 kmh E 11.0 mph17.7 kmh 30.06 in1017.9 mb 0.00 in0.0 mm 0.00 in0.0 mm 0.01 in0.3 mm
07:34 AM 48.2°F9.0°C 46.3°F7.9°C 88% 4.0 mph ENE6.4 kmh ENE 11.0 mph17.7 kmh 30.06 in1017.9 mb 0.00 in0.0 mm 0.00 in0.0 mm 0.01 in0.3 mm
07:36 AM 48.3°F9.1°C 46.4°F8.0°C 88% 5.0 mph NE8.0 kmh NE 11.0 mph17.7 kmh 30.06 in1017.9 mb 0.00 in0.0 mm 0.00 in0.0 mm 0.01 in0.3 mm
07:38 AM 48.3°F9.1°C 46.4°F8.0°C 88% 3.0 mph NNE4.8 kmh NNE 11.0 mph17.7 kmh 30.06 in1017.9 mb 0.00 in0.0 mm 0.00 in0.0 mm 0.01 in0.3 mm
07:40 AM 48.4°F9.1°C 46.5°F8.1°C 88% 1.0 mph NE1.6 kmh NE 11.0 mph17.7 kmh 30.06 in1017.9 mb 0.00 in0.0 mm 0.00 in0.0 mm 0.01 in0.3 mm
07:42 AM 48.5°F9.2°C 46.6°F8.1°C 88% 4.0 mph NE6.4 kmh NE 11.0 mph17.7 kmh 30.06 in1017.9 mb 0.00 in0.0 mm 0.00 in0.0 mm 0.01 in0.3 mm
07:44 AM 48.5°F9.2°C 46.6°F8.1°C 88% 1.0 mph SE1.6 kmh SE 11.0 mph17.7 kmh 30.06 in1017.9 mb 0.00 in0.0 mm 0.00 in0.0 mm 0.01 in0.3 mm
07:46 AM 48.5°F9.2°C 46.6°F8.1°C 88% 3.0 mph SSE4.8 kmh SSE 11.0 mph17.7 kmh 30.06 in1017.9 mb 0.00 in0.0 mm 0.00 in0.0 mm 0.01 in0.3 mm
07:48 AM 48.6°F9.2°C 46.7°F8.2°C 88% 3.0 mph NE4.8 kmh NE 11.0 mph17.7 kmh 30.06 in1017.9 mb 0.00 in0.0 mm 0.00 in0.0 mm 0.01 in0.3 mm
07:50 AM 48.6°F9.2°C 46.7°F8.2°C 88% 6.0 mph ENE9.7 kmh ENE 12.0 mph19.3 kmh 30.05 in1017.6 mb 0.00 in0.0 mm 0.00 in0.0 mm 0.01 in0.3 mm
07:52 AM 48.7°F9.3°C 46.8°F8.2°C 88% 5.0 mph N8.0 kmh N 12.0 mph19.3 kmh 30.05 in1017.6 mb 0.00 in0.0 mm 0.00 in0.0 mm 0.01 in0.3 mm
07:54 AM 48.7°F9.3°C 46.8°F8.2°C 88% 5.0 mph NE8.0 kmh NE 12.0 mph19.3 kmh 30.05 in1017.6 mb 0.00 in0.0 mm 0.00 in0.0 mm 0.01 in0.3 mm
07:56 AM 48.7°F9.3°C 46.8°F8.2°C 88% 4.0 mph ENE6.4 kmh ENE 12.0 mph19.3 kmh 30.05 in1017.6 mb 0.00 in0.0 mm 0.00 in0.0 mm 0.01 in0.3 mm
07:58 AM 48.7°F9.3°C 46.8°F8.2°C 88% 2.0 mph W3.2 kmh W 12.0 mph19.3 kmh 30.04 in1017.3 mb 0.00 in0.0 mm 0.00 in0.0 mm 0.01 in0.3 mm
08:00 AM 48.8°F9.3°C 46.9°F8.3°C 88% 5.0 mph NNE8.0 kmh NNE 12.0 mph19.3 kmh 30.04 in1017.3 mb 0.00 in0.0 mm 0.00 in0.0 mm 0.01 in0.3 mm
08:02 AM 48.8°F9.3°C 46.9°F8.3°C 88% 4.0 mph ENE6.4 kmh ENE 12.0 mph19.3 kmh 30.05 in1017.6 mb 0.00 in0.0 mm 0.00 in0.0 mm 0.01 in0.3 mm
08:04 AM 48.8°F9.3°C 46.9°F8.3°C 88% 1.0 mph N1.6 kmh N 12.0 mph19.3 kmh 30.05 in1017.6 mb 0.00 in0.0 mm 0.00 in0.0 mm 0.01 in0.3 mm
08:06 AM 48.8°F9.3°C 46.9°F8.3°C 88% 6.0 mph NE9.7 kmh NE 12.0 mph19.3 kmh 30.05 in1017.6 mb 0.00 in0.0 mm 0.00 in0.0 mm 0.01 in0.3 mm
08:08 AM 48.9°F9.4°C 47.0°F8.3°C 88% 6.0 mph NE9.7 kmh NE 12.0 mph19.3 kmh 30.04 in1017.3 mb 0.00 in0.0 mm 0.00 in0.0 mm 0.01 in0.3 mm
08:10 AM 48.9°F9.4°C 47.0°F8.3°C 88% 6.0 mph NE9.7 kmh NE 12.0 mph19.3 kmh 30.04 in1017.3 mb 0.00 in0.0 mm 0.00 in0.0 mm 0.01 in0.3 mm
08:12 AM 48.9°F9.4°C 47.2°F8.4°C 89% 6.0 mph NE9.7 kmh NE 12.0 mph19.3 kmh 30.03 in1016.9 mb 0.00 in0.0 mm 0.00 in0.0 mm 0.01 in0.3 mm
08:14 AM 48.9°F9.4°C 47.2°F8.4°C 89% 2.0 mph ENE3.2 kmh ENE 12.0 mph19.3 kmh 30.03 in1016.9 mb 0.00 in0.0 mm 0.00 in0.0 mm 0.01 in0.3 mm
08:16 AM 48.9°F9.4°C 47.2°F8.4°C 89% 7.0 mph E11.3 kmh E 12.0 mph19.3 kmh 30.03 in1016.9 mb 0.00 in0.0 mm 0.00 in0.0 mm 0.01 in0.3 mm
08:18 AM 48.9°F9.4°C 47.2°F8.4°C 89% 5.0 mph ENE8.0 kmh ENE 12.0 mph19.3 kmh 30.03 in1016.9 mb 0.00 in0.0 mm 0.00 in0.0 mm 0.01 in0.3 mm
08:20 AM 48.9°F9.4°C 47.2°F8.4°C 89% 8.0 mph ENE12.9 kmh ENE 12.0 mph19.3 kmh 30.02 in1016.6 mb 0.00 in0.0 mm 0.00 in0.0 mm 0.01 in0.3 mm
08:22 AM 48.8°F9.3°C 47.1°F8.4°C 89% 4.0 mph NE6.4 kmh NE 12.0 mph19.3 kmh 30.02 in1016.6 mb 0.00 in0.0 mm 0.00 in0.0 mm 0.01 in0.3 mm
08:24 AM 48.8°F9.3°C 46.9°F8.3°C 88% 4.0 mph ENE6.4 kmh ENE 12.0 mph19.3 kmh 30.03 in1016.9 mb 0.00 in0.0 mm 0.00 in0.0 mm 0.01 in0.3 mm
08:26 AM 48.8°F9.3°C 47.1°F8.4°C 89% 5.0 mph NE8.0 kmh NE 12.0 mph19.3 kmh 30.04 in1017.3 mb 0.00 in0.0 mm 0.00 in0.0 mm 0.01 in0.3 mm
08:28 AM 48.8°F9.3°C 46.9°F8.3°C 88% 5.0 mph NE8.0 kmh NE 12.0 mph19.3 kmh 30.04 in1017.3 mb 0.00 in0.0 mm 0.00 in0.0 mm 0.01 in0.3 mm
08:30 AM 48.8°F9.3°C 46.9°F8.3°C 88% 5.0 mph NNE8.0 kmh NNE 13.0 mph20.9 kmh 30.04 in1017.3 mb 0.00 in0.0 mm 0.00 in0.0 mm 0.01 in0.3 mm
08:32 AM 48.8°F9.3°C 46.9°F8.3°C 88% 10.0 mph NE16.1 kmh NE 13.0 mph20.9 kmh 30.04 in1017.3 mb 0.00 in0.0 mm 0.00 in0.0 mm 0.01 in0.3 mm
08:34 AM 48.7°F9.3°C 46.8°F8.2°C 88% 4.0 mph ENE6.4 kmh ENE 13.0 mph20.9 kmh 30.04 in1017.3 mb 0.00 in0.0 mm 0.00 in0.0 mm 0.01 in0.3 mm
08:36 AM 48.8°F9.3°C 46.9°F8.3°C 88% 7.0 mph NE11.3 kmh NE 13.0 mph20.9 kmh 30.04 in1017.3 mb 0.00 in0.0 mm 0.00 in0.0 mm 0.01 in0.3 mm
08:38 AM 48.8°F9.3°C 46.9°F8.3°C 88% 3.0 mph NE4.8 kmh NE 13.0 mph20.9 kmh 30.04 in1017.3 mb 0.00 in0.0 mm 0.00 in0.0 mm 0.01 in0.3 mm
08:40 AM 48.8°F9.3°C 46.9°F8.3°C 88% 6.0 mph NE9.7 kmh NE 18.0 mph29.0 kmh 30.05 in1017.6 mb 0.00 in0.0 mm 0.00 in0.0 mm 0.01 in0.3 mm
08:42 AM 48.8°F9.3°C 46.9°F8.3°C 88% 5.0 mph NE8.0 kmh NE 18.0 mph29.0 kmh 30.05 in1017.6 mb 0.00 in0.0 mm 0.00 in0.0 mm 0.01 in0.3 mm
08:44 AM 48.8°F9.3°C 47.1°F8.4°C 89% 6.0 mph NE9.7 kmh NE 18.0 mph29.0 kmh 30.05 in1017.6 mb 0.00 in0.0 mm 0.00 in0.0 mm 0.01 in0.3 mm
08:46 AM 48.8°F9.3°C 47.1°F8.4°C 89% 4.0 mph E6.4 kmh E 18.0 mph29.0 kmh 30.05 in1017.6 mb 0.00 in0.0 mm 0.00 in0.0 mm 0.01 in0.3 mm
08:48 AM 48.8°F9.3°C 47.1°F8.4°C 89% 2.0 mph E3.2 kmh E 18.0 mph29.0 kmh 30.06 in1017.9 mb 0.00 in0.0 mm 0.00 in0.0 mm 0.01 in0.3 mm
08:50 AM 48.8°F9.3°C 47.1°F8.4°C 89% 9.0 mph ESE14.5 kmh ESE 18.0 mph29.0 kmh 30.05 in1017.6 mb 0.00 in0.0 mm 0.00 in0.0 mm 0.01 in0.3 mm
08:52 AM 48.9°F9.4°C 47.2°F8.4°C 89% 4.0 mph NE6.4 kmh NE 18.0 mph29.0 kmh 30.05 in1017.6 mb 0.00 in0.0 mm 0.00 in0.0 mm 0.01 in0.3 mm
08:54 AM 49.0°F9.4°C 47.3°F8.5°C 89% 4.0 mph E6.4 kmh E 18.0 mph29.0 kmh 30.05 in1017.6 mb 0.00 in0.0 mm 0.00 in0.0 mm 0.01 in0.3 mm
08:56 AM 49.0°F9.4°C 47.3°F8.5°C 89% 3.0 mph NE4.8 kmh NE 18.0 mph29.0 kmh 30.05 in1017.6 mb 0.00 in0.0 mm 0.00 in0.0 mm 0.01 in0.3 mm
08:58 AM 49.0°F9.4°C 47.3°F8.5°C 89% 7.0 mph NE11.3 kmh NE 18.0 mph29.0 kmh 30.05 in1017.6 mb 0.00 in0.0 mm 0.00 in0.0 mm 0.01 in0.3 mm
09:00 AM 49.0°F9.4°C 47.3°F8.5°C 89% 9.0 mph NE14.5 kmh NE 13.0 mph20.9 kmh 30.05 in1017.6 mb 0.00 in0.0 mm 0.00 in0.0 mm 0.01 in0.3 mm
09:02 AM 49.0°F9.4°C 47.3°F8.5°C 89% 5.0 mph NE8.0 kmh NE 15.0 mph24.1 kmh 30.05 in1017.6 mb 0.00 in0.0 mm 0.00 in0.0 mm 0.01 in0.3 mm
09:04 AM 49.0°F9.4°C 47.1°F8.4°C 88% 9.0 mph NNE14.5 kmh NNE 15.0 mph24.1 kmh 30.05 in1017.6 mb 0.00 in0.0 mm 0.00 in0.0 mm 0.01 in0.3 mm
09:06 AM 49.0°F9.4°C 47.3°F8.5°C 89% 7.0 mph E11.3 kmh E 15.0 mph24.1 kmh 30.05 in1017.6 mb 0.00 in0.0 mm 0.00 in0.0 mm 0.01 in0.3 mm
09:08 AM 49.0°F9.4°C 47.3°F8.5°C 89% 4.0 mph NE6.4 kmh NE 15.0 mph24.1 kmh 30.05 in1017.6 mb 0.00 in0.0 mm 0.00 in0.0 mm 0.01 in0.3 mm
09:10 AM 49.0°F9.4°C 47.3°F8.5°C 89% 6.0 mph NE9.7 kmh NE 15.0 mph24.1 kmh 30.04 in1017.3 mb 0.00 in0.0 mm 0.00 in0.0 mm 0.01 in0.3 mm
09:12 AM 49.0°F9.4°C 47.3°F8.5°C 89% 4.0 mph NE6.4 kmh NE 21.0 mph33.8 kmh 30.04 in1017.3 mb 0.00 in0.0 mm 0.00 in0.0 mm 0.01 in0.3 mm
09:14 AM 48.9°F9.4°C 47.2°F8.4°C 89% 7.0 mph SE11.3 kmh SE 21.0 mph33.8 kmh 30.04 in1017.3 mb 0.00 in0.0 mm 0.00 in0.0 mm 0.01 in0.3 mm
09:16 AM 48.9°F9.4°C 47.2°F8.4°C 89% 7.0 mph NE11.3 kmh NE 21.0 mph33.8 kmh 30.04 in1017.3 mb 0.00 in0.0 mm 0.00 in0.0 mm 0.01 in0.3 mm
09:18 AM 48.8°F9.3°C 47.4°F8.6°C 90% 13.0 mph NE20.9 kmh NE 21.0 mph33.8 kmh 30.04 in1017.3 mb 0.00 in0.0 mm 0.00 in0.0 mm 0.01 in0.3 mm
09:20 AM 48.8°F9.3°C 47.4°F8.6°C 90% 3.0 mph ENE4.8 kmh ENE 21.0 mph33.8 kmh 30.04 in1017.3 mb 0.00 in0.0 mm 0.00 in0.0 mm 0.02 in0.5 mm
09:22 AM 48.7°F9.3°C 47.3°F8.5°C 90% 9.0 mph ENE14.5 kmh ENE 21.0 mph33.8 kmh 30.03 in1016.9 mb 0.00 in0.0 mm 0.00 in0.0 mm 0.02 in0.5 mm
09:24 AM 48.7°F9.3°C 47.3°F8.5°C 90% 4.0 mph ENE6.4 kmh ENE 21.0 mph33.8 kmh 30.02 in1016.6 mb 0.00 in0.0 mm 0.00 in0.0 mm 0.02 in0.5 mm
09:26 AM 48.5°F9.2°C 47.4°F8.6°C 91% 6.0 mph NE9.7 kmh NE 21.0 mph33.8 kmh 30.02 in1016.6 mb 0.00 in0.0 mm 0.00 in0.0 mm 0.02 in0.5 mm
09:28 AM 48.5°F9.2°C 47.4°F8.6°C 91% 4.0 mph E6.4 kmh E 21.0 mph33.8 kmh 30.02 in1016.6 mb 0.07 in1.8 mm 2.10 in53.3 mm 0.02 in0.5 mm
09:30 AM 48.5°F9.2°C 47.4°F8.6°C 91% 5.0 mph NE8.0 kmh NE 21.0 mph33.8 kmh 30.01 in1016.3 mb 0.07 in1.8 mm 0.00 in0.0 mm 0.03 in0.8 mm
09:32 AM 48.4°F9.1°C 47.3°F8.5°C 91% 9.0 mph NE14.5 kmh NE 19.0 mph30.6 kmh 30.01 in1016.3 mb 0.12 in3.0 mm 1.50 in38.1 mm 0.03 in0.8 mm
09:34 AM 48.3°F9.1°C 47.2°F8.4°C 91% 5.0 mph NE8.0 kmh NE 19.0 mph30.6 kmh 30.01 in1016.3 mb 0.12 in3.0 mm 0.00 in0.0 mm 0.04 in1.0 mm
09:36 AM 48.4°F9.1°C 47.3°F8.5°C 91% 6.0 mph NE9.7 kmh NE 19.0 mph30.6 kmh 30.02 in1016.6 mb 0.12 in3.0 mm 0.00 in0.0 mm 0.04 in1.0 mm
09:38 AM 48.3°F9.1°C 47.5°F8.6°C 92% 5.0 mph NNE8.0 kmh NNE 19.0 mph30.6 kmh 30.02 in1016.6 mb 0.09 in2.3 mm 0.00 in0.0 mm 0.04 in1.0 mm
09:40 AM 48.3°F9.1°C 47.5°F8.6°C 92% 7.0 mph NE11.3 kmh NE 19.0 mph30.6 kmh 30.02 in1016.6 mb 0.08 in2.0 mm 0.00 in0.0 mm 0.04 in1.0 mm
09:42 AM 48.3°F9.1°C 47.5°F8.6°C 92% 9.0 mph E14.5 kmh E 15.0 mph24.1 kmh 30.03 in1016.9 mb 0.08 in2.0 mm 0.00 in0.0 mm 0.05 in1.3 mm
09:44 AM 48.3°F9.1°C 47.5°F8.6°C 92% 4.0 mph NNE6.4 kmh NNE 15.0 mph24.1 kmh 30.02 in1016.6 mb 0.08 in2.0 mm 0.00 in0.0 mm 0.05 in1.3 mm
09:46 AM 48.3°F9.1°C 47.5°F8.6°C 92% 9.0 mph NE14.5 kmh NE 15.0 mph24.1 kmh 30.02 in1016.6 mb 0.09 in2.3 mm 0.30 in7.6 mm 0.05 in1.3 mm
09:48 AM 48.4°F9.1°C 47.6°F8.7°C 92% 5.0 mph E8.0 kmh E 15.0 mph24.1 kmh 30.03 in1016.9 mb 0.09 in2.3 mm 0.00 in0.0 mm 0.06 in1.5 mm
09:50 AM 48.3°F9.1°C 47.5°F8.6°C 92% 7.0 mph NE11.3 kmh NE 15.0 mph24.1 kmh 30.03 in1016.9 mb 0.09 in2.3 mm 0.00 in0.0 mm 0.06 in1.5 mm
09:52 AM 48.4°F9.1°C 47.6°F8.7°C 92% 3.0 mph NE4.8 kmh NE 15.0 mph24.1 kmh 30.03 in1016.9 mb 0.09 in2.3 mm 0.00 in0.0 mm 0.06 in1.5 mm
09:54 AM 48.4°F9.1°C 47.6°F8.7°C 92% 4.0 mph NE6.4 kmh NE 15.0 mph24.1 kmh 30.03 in1016.9 mb 0.07 in1.8 mm 0.00 in0.0 mm 0.06 in1.5 mm
09:56 AM 48.5°F9.2°C 47.7°F8.7°C 92% 1.0 mph SE1.6 kmh SE 15.0 mph24.1 kmh 30.03 in1016.9 mb 0.06 in1.5 mm 0.00 in0.0 mm 0.06 in1.5 mm
09:58 AM 48.4°F9.1°C 47.6°F8.7°C 92% 6.0 mph NE9.7 kmh NE 15.0 mph24.1 kmh 30.03 in1016.9 mb 0.05 in1.3 mm 0.00 in0.0 mm 0.06 in1.5 mm
10:00 AM 48.5°F9.2°C 47.7°F8.7°C 92% 3.0 mph ENE4.8 kmh ENE 15.0 mph24.1 kmh 30.03 in1016.9 mb 0.04 in1.0 mm 0.00 in0.0 mm 0.06 in1.5 mm
10:02 AM 48.5°F9.2°C 47.7°F8.7°C 92% 3.0 mph ENE4.8 kmh ENE 15.0 mph24.1 kmh 30.03 in1016.9 mb 0.04 in1.0 mm 0.00 in0.0 mm 0.06 in1.5 mm
10:04 AM 48.6°F9.2°C 47.8°F8.8°C 92% 4.0 mph ENE6.4 kmh ENE 15.0 mph24.1 kmh 30.03 in1016.9 mb 0.04 in1.0 mm 0.00 in0.0 mm 0.07 in1.8 mm
10:06 AM 48.6°F9.2°C 47.8°F8.8°C 92% 4.0 mph N6.4 kmh N 13.0 mph20.9 kmh 30.03 in1016.9 mb 0.04 in1.0 mm 0.00 in0.0 mm 0.07 in1.8 mm
10:08 AM 48.6°F9.2°C 47.8°F8.8°C 92% 7.0 mph NE11.3 kmh NE 13.0 mph20.9 kmh 30.02 in1016.6 mb 0.04 in1.0 mm 0.00 in0.0 mm 0.07 in1.8 mm
10:10 AM 48.6°F9.2°C 47.8°F8.8°C 92% 1.0 mph E1.6 kmh E 13.0 mph20.9 kmh 30.02 in1016.6 mb 0.04 in1.0 mm 0.00 in0.0 mm 0.07 in1.8 mm
10:12 AM 48.6°F9.2°C 48.1°F8.9°C 93% 3.0 mph NE4.8 kmh NE 13.0 mph20.9 kmh 30.02 in1016.6 mb 0.04 in1.0 mm 0.00 in0.0 mm 0.07 in1.8 mm
10:14 AM 48.7°F9.3°C 48.2°F9.0°C 93% 4.0 mph ENE6.4 kmh ENE 15.0 mph24.1 kmh 30.02 in1016.6 mb 0.04 in1.0 mm 0.00 in0.0 mm 0.07 in1.8 mm
10:16 AM 48.7°F9.3°C 48.2°F9.0°C 93% 3.0 mph ENE4.8 kmh ENE 15.0 mph24.1 kmh 30.02 in1016.6 mb 0.04 in1.0 mm 0.00 in0.0 mm 0.07 in1.8 mm
10:18 AM 48.7°F9.3°C 48.2°F9.0°C 93% 3.0 mph ENE4.8 kmh ENE 15.0 mph24.1 kmh 30.02 in1016.6 mb 0.04 in1.0 mm 0.00 in0.0 mm 0.07 in1.8 mm
10:20 AM 48.7°F9.3°C 48.2°F9.0°C 93% 5.0 mph NNE8.0 kmh NNE 15.0 mph24.1 kmh 30.01 in1016.3 mb 0.00 in0.0 mm 0.00 in0.0 mm 0.07 in1.8 mm
10:22 AM 48.7°F9.3°C 48.2°F9.0°C 93% 2.0 mph NE3.2 kmh NE 15.0 mph24.1 kmh 30.01 in1016.3 mb 0.00 in0.0 mm 0.00 in0.0 mm 0.08 in2.0 mm
10:24 AM 48.7°F9.3°C 48.2°F9.0°C 93% 3.0 mph E4.8 kmh E 15.0 mph24.1 kmh 30.01 in1016.3 mb 0.00 in0.0 mm 0.00 in0.0 mm 0.08 in2.0 mm
10:26 AM 48.7°F9.3°C 48.2°F9.0°C 93% 4.0 mph ENE6.4 kmh ENE 15.0 mph24.1 kmh 30.01 in1016.3 mb 0.00 in0.0 mm 0.00 in0.0 mm 0.08 in2.0 mm
10:28 AM 48.7°F9.3°C 48.2°F9.0°C 93% 1.0 mph ENE1.6 kmh ENE 15.0 mph24.1 kmh 30.01 in1016.3 mb 0.08 in2.0 mm 2.40 in61.0 mm 0.08 in2.0 mm
10:30 AM 48.7°F9.3°C 48.2°F9.0°C 93% 7.0 mph NE11.3 kmh NE 15.0 mph24.1 kmh 30.01 in1016.3 mb 0.08 in2.0 mm 0.00 in0.0 mm 0.08 in2.0 mm
10:32 AM 48.7°F9.3°C 48.2°F9.0°C 93% 5.0 mph NE8.0 kmh NE 15.0 mph24.1 kmh 30.01 in1016.3 mb 0.08 in2.0 mm 0.00 in0.0 mm 0.09 in2.3 mm
10:34 AM 48.7°F9.3°C 48.2°F9.0°C 93% 5.0 mph N8.0 kmh N 13.0 mph20.9 kmh 30.01 in1016.3 mb 0.08 in2.0 mm 0.00 in0.0 mm 0.09 in2.3 mm
10:36 AM 48.7°F9.3°C 48.2°F9.0°C 93% 10.0 mph NE16.1 kmh NE 13.0 mph20.9 kmh 30.00 in1015.9 mb 0.07 in1.8 mm 0.00 in0.0 mm 0.09 in2.3 mm
10:38 AM 48.7°F9.3°C 48.2°F9.0°C 93% 6.0 mph NE9.7 kmh NE 13.0 mph20.9 kmh 30.00 in1015.9 mb 0.06 in1.5 mm 0.00 in0.0 mm 0.09 in2.3 mm
10:40 AM 48.7°F9.3°C 48.2°F9.0°C 93% 5.0 mph ENE8.0 kmh ENE 13.0 mph20.9 kmh 30.01 in1016.3 mb 0.06 in1.5 mm 0.00 in0.0 mm 0.10 in2.5 mm
10:42 AM 48.7°F9.3°C 48.2°F9.0°C 93% 6.0 mph NE9.7 kmh NE 13.0 mph20.9 kmh 30.01 in1016.3 mb 0.06 in1.5 mm 0.00 in0.0 mm 0.10 in2.5 mm
10:44 AM 48.7°F9.3°C 48.2°F9.0°C 93% 6.0 mph ENE9.7 kmh ENE 12.0 mph19.3 kmh 30.00 in1015.9 mb 0.06 in1.5 mm 0.00 in0.0 mm 0.10 in2.5 mm
10:46 AM 48.7°F9.3°C 47.9°F8.8°C 92% 4.0 mph NE6.4 kmh NE 15.0 mph24.1 kmh 30.00 in1015.9 mb 0.06 in1.5 mm 0.00 in0.0 mm 0.10 in2.5 mm
10:48 AM 48.7°F9.3°C 48.2°F9.0°C 93% 8.0 mph NE12.9 kmh NE 15.0 mph24.1 kmh 30.00 in1015.9 mb 0.06 in1.5 mm 0.00 in0.0 mm 0.10 in2.5 mm
10:50 AM 48.7°F9.3°C 47.9°F8.8°C 92% 5.0 mph N8.0 kmh N 15.0 mph24.1 kmh 29.99 in1015.6 mb 0.05 in1.3 mm 0.00 in0.0 mm 0.10 in2.5 mm
10:52 AM 48.7°F9.3°C 47.9°F8.8°C 92% 3.0 mph NE4.8 kmh NE 15.0 mph24.1 kmh 30.00 in1015.9 mb 0.05 in1.3 mm 0.00 in0.0 mm 0.10 in2.5 mm
10:54 AM 48.7°F9.3°C 47.9°F8.8°C 92% 4.0 mph NE6.4 kmh NE 15.0 mph24.1 kmh 29.99 in1015.6 mb 0.05 in1.3 mm 0.00 in0.0 mm 0.11 in2.8 mm
10:56 AM 48.7°F9.3°C 47.9°F8.8°C 92% 4.0 mph ESE6.4 kmh ESE 15.0 mph24.1 kmh 30.00 in1015.9 mb 0.05 in1.3 mm 0.00 in0.0 mm 0.11 in2.8 mm
10:58 AM 48.7°F9.3°C 47.9°F8.8°C 92% 5.0 mph NE8.0 kmh NE 15.0 mph24.1 kmh 30.00 in1015.9 mb 0.05 in1.3 mm 0.00 in0.0 mm 0.11 in2.8 mm
11:00 AM 48.6°F9.2°C 47.8°F8.8°C 92% 5.0 mph E8.0 kmh E 15.0 mph24.1 kmh 30.00 in1015.9 mb 0.05 in1.3 mm 0.00 in0.0 mm 0.11 in2.8 mm
11:02 AM 48.7°F9.3°C 47.9°F8.8°C 92% 3.0 mph NE4.8 kmh NE 15.0 mph24.1 kmh 30.00 in1015.9 mb 0.06 in1.5 mm 0.30 in7.6 mm 0.11 in2.8 mm
11:04 AM 48.6°F9.2°C 47.8°F8.8°C 92% 7.0 mph NE11.3 kmh NE 15.0 mph24.1 kmh 30.01 in1016.3 mb 0.06 in1.5 mm 0.00 in0.0 mm 0.12 in3.0 mm
11:06 AM 48.7°F9.3°C 47.9°F8.8°C 92% 2.0 mph E3.2 kmh E 12.0 mph19.3 kmh 30.00 in1015.9 mb 0.06 in1.5 mm 0.00 in0.0 mm 0.12 in3.0 mm
11:08 AM 48.6°F9.2°C 47.8°F8.8°C 92% 2.0 mph ENE3.2 kmh ENE 12.0 mph19.3 kmh 30.00 in1015.9 mb 0.06 in1.5 mm 0.00 in0.0 mm 0.12 in3.0 mm
11:10 AM 48.6°F9.2°C 48.1°F8.9°C 93% 6.0 mph NE9.7 kmh NE 12.0 mph19.3 kmh 30.00 in1015.9 mb 0.06 in1.5 mm 0.00 in0.0 mm 0.12 in3.0 mm
11:12 AM 48.7°F9.3°C 47.9°F8.8°C 92% 2.0 mph NE3.2 kmh NE 12.0 mph19.3 kmh 30.01 in1016.3 mb 0.05 in1.3 mm 0.00 in0.0 mm 0.12 in3.0 mm
11:14 AM 48.6°F9.2°C 47.8°F8.8°C 92% 6.0 mph NE9.7 kmh NE 12.0 mph19.3 kmh 30.00 in1015.9 mb 0.05 in1.3 mm 0.00 in0.0 mm 0.13 in3.3 mm
11:16 AM 48.6°F9.2°C 47.8°F8.8°C 92% 5.0 mph NE8.0 kmh NE 11.0 mph17.7 kmh 30.00 in1015.9 mb 0.05 in1.3 mm 0.00 in0.0 mm 0.13 in3.3 mm
11:18 AM 48.5°F9.2°C 47.7°F8.7°C 92% 5.0 mph NE8.0 kmh NE 11.0 mph17.7 kmh 30.00 in1015.9 mb 0.05 in1.3 mm 0.00 in0.0 mm 0.13 in3.3 mm
11:20 AM 48.6°F9.2°C 47.8°F8.8°C 92% 3.0 mph NE4.8 kmh NE 11.0 mph17.7 kmh 30.00 in1015.9 mb 0.05 in1.3 mm 0.00 in0.0 mm 0.13 in3.3 mm
11:22 AM 48.6°F9.2°C 47.8°F8.8°C 92% 4.0 mph NNE6.4 kmh NNE 11.0 mph17.7 kmh 30.00 in1015.9 mb 0.05 in1.3 mm 0.00 in0.0 mm 0.13 in3.3 mm
11:24 AM 48.5°F9.2°C 47.7°F8.7°C 92% 4.0 mph ENE6.4 kmh ENE 11.0 mph17.7 kmh 30.00 in1015.9 mb 0.05 in1.3 mm 0.00 in0.0 mm 0.13 in3.3 mm
11:26 AM 48.5°F9.2°C 47.7°F8.7°C 92% 4.0 mph E6.4 kmh E 9.0 mph14.5 kmh 30.00 in1015.9 mb 0.04 in1.0 mm 0.00 in0.0 mm 0.13 in3.3 mm
11:28 AM 48.5°F9.2°C 47.7°F8.7°C 92% 1.0 mph NE1.6 kmh NE 9.0 mph14.5 kmh 30.00 in1015.9 mb 0.04 in1.0 mm 0.00 in0.0 mm 0.13 in3.3 mm
11:30 AM 48.4°F9.1°C 47.6°F8.7°C 92% 4.0 mph NE6.4 kmh NE 9.0 mph14.5 kmh 30.00 in1015.9 mb 0.00 in0.0 mm 0.00 in0.0 mm 0.13 in3.3 mm
11:32 AM 48.4°F9.1°C 47.6°F8.7°C 92% 5.0 mph ENE8.0 kmh ENE 9.0 mph14.5 kmh 30.00 in1015.9 mb 0.00 in0.0 mm 0.00 in0.0 mm 0.14 in3.6 mm
11:34 AM 48.4°F9.1°C 47.6°F8.7°C 92% 3.0 mph ENE4.8 kmh ENE 9.0 mph14.5 kmh 30.00 in1015.9 mb 0.00 in0.0 mm 0.00 in0.0 mm 0.14 in3.6 mm
11:36 AM 48.4°F9.1°C 47.6°F8.7°C 92% 4.0 mph NE6.4 kmh NE 9.0 mph14.5 kmh 30.00 in1015.9 mb 0.00 in0.0 mm 0.00 in0.0 mm 0.14 in3.6 mm
11:38 AM 48.4°F9.1°C 47.6°F8.7°C 92% 4.0 mph NE6.4 kmh NE 9.0 mph14.5 kmh 30.00 in1015.9 mb 0.08 in2.0 mm 2.40 in61.0 mm 0.14 in3.6 mm
11:40 AM 48.3°F9.1°C 47.5°F8.6°C 92% 4.0 mph NE6.4 kmh NE 9.0 mph14.5 kmh 30.00 in1015.9 mb 0.08 in2.0 mm 0.00 in0.0 mm 0.15 in3.8 mm
11:42 AM 48.3°F9.1°C 47.5°F8.6°C 92% 3.0 mph NE4.8 kmh NE 13.0 mph20.9 kmh 30.00 in1015.9 mb 0.08 in2.0 mm 0.00 in0.0 mm 0.15 in3.8 mm
11:44 AM 48.3°F9.1°C 47.5°F8.6°C 92% 5.0 mph NNE8.0 kmh NNE 13.0 mph20.9 kmh 29.99 in1015.6 mb 0.08 in2.0 mm 0.00 in0.0 mm 0.15 in3.8 mm
11:46 AM 48.3°F9.1°C 47.5°F8.6°C 92% 1.0 mph NE1.6 kmh NE 13.0 mph20.9 kmh 29.99 in1015.6 mb 0.06 in1.5 mm 0.00 in0.0 mm 0.15 in3.8 mm
11:48 AM 48.3°F9.1°C 47.5°F8.6°C 92% 3.0 mph NE4.8 kmh NE 13.0 mph20.9 kmh 29.99 in1015.6 mb 0.05 in1.3 mm 0.00 in0.0 mm 0.15 in3.8 mm
11:50 AM 48.2°F9.0°C 47.4°F8.6°C 92% 4.0 mph ENE6.4 kmh ENE 13.0 mph20.9 kmh 29.99 in1015.6 mb 0.04 in1.0 mm 0.00 in0.0 mm 0.15 in3.8 mm
11:52 AM 48.2°F9.0°C 47.4°F8.6°C 92% 7.0 mph E11.3 kmh E 13.0 mph20.9 kmh 29.99 in1015.6 mb 0.04 in1.0 mm 0.00 in0.0 mm 0.15 in3.8 mm
11:54 AM 48.1°F8.9°C 47.3°F8.5°C 92% 5.0 mph E8.0 kmh E 13.0 mph20.9 kmh 29.99 in1015.6 mb 0.00 in0.0 mm 0.00 in0.0 mm 0.15 in3.8 mm
11:56 AM 48.1°F8.9°C 47.3°F8.5°C 92% 6.0 mph NE9.7 kmh NE 13.0 mph20.9 kmh 30.00 in1015.9 mb 0.00 in0.0 mm 0.00 in0.0 mm 0.15 in3.8 mm
11:58 AM 48.0°F8.9°C 47.2°F8.4°C 92% 4.0 mph NNE6.4 kmh NNE 13.0 mph20.9 kmh 30.00 in1015.9 mb 0.00 in0.0 mm 0.00 in0.0 mm 0.15 in3.8 mm
12:00 PM 48.0°F8.9°C 47.2°F8.4°C 92% 6.0 mph NE9.7 kmh NE 13.0 mph20.9 kmh 30.00 in1015.9 mb 0.00 in0.0 mm 0.00 in0.0 mm 0.16 in4.1 mm
12:02 PM 48.0°F8.9°C 47.2°F8.4°C 92% 3.0 mph E4.8 kmh E 9.0 mph14.5 kmh 30.00 in1015.9 mb 0.00 in0.0 mm 0.00 in0.0 mm 0.16 in4.1 mm
12:04 PM 47.9°F8.8°C 47.1°F8.4°C 92% 4.0 mph ENE6.4 kmh ENE 9.0 mph14.5 kmh 30.00 in1015.9 mb 0.00 in0.0 mm 0.00 in0.0 mm 0.16 in4.1 mm
12:06 PM 47.9°F8.8°C 47.1°F8.4°C 92% 3.0 mph NE4.8 kmh NE 9.0 mph14.5 kmh 30.00 in1015.9 mb 0.00 in0.0 mm 0.00 in0.0 mm 0.16 in4.1 mm
12:08 PM 47.9°F8.8°C 47.1°F8.4°C 92% 4.0 mph NE6.4 kmh NE 9.0 mph14.5 kmh 30.00 in1015.9 mb 0.00 in0.0 mm 0.00 in0.0 mm 0.16 in4.1 mm
12:10 PM 47.8°F8.8°C 47.0°F8.3°C 92% 4.0 mph NE6.4 kmh NE 9.0 mph14.5 kmh 30.00 in1015.9 mb 0.00 in0.0 mm 0.00 in0.0 mm 0.16 in4.1 mm
12:12 PM 47.9°F8.8°C 47.1°F8.4°C 92% 3.0 mph NE4.8 kmh NE 9.0 mph14.5 kmh 30.00 in1015.9 mb 0.00 in0.0 mm 0.00 in0.0 mm 0.16 in4.1 mm
12:14 PM 47.8°F8.8°C 47.0°F8.3°C 92% 3.0 mph E4.8 kmh E 9.0 mph14.5 kmh 30.00 in1015.9 mb 0.04 in1.0 mm 1.20 in30.5 mm 0.16 in4.1 mm
12:16 PM 47.8°F8.8°C 47.0°F8.3°C 92% 3.0 mph NE4.8 kmh NE 9.0 mph14.5 kmh 30.00 in1015.9 mb 0.04 in1.0 mm 0.00 in0.0 mm 0.17 in4.3 mm
12:18 PM 47.8°F8.8°C 47.0°F8.3°C 92% 2.0 mph NE3.2 kmh NE 9.0 mph14.5 kmh 30.00 in1015.9 mb 0.04 in1.0 mm 0.00 in0.0 mm 0.17 in4.3 mm
12:20 PM 47.7°F8.7°C 46.9°F8.3°C 92% 2.0 mph NE3.2 kmh NE 9.0 mph14.5 kmh 30.00 in1015.9 mb 0.04 in1.0 mm 0.00 in0.0 mm 0.17 in4.3 mm
12:22 PM 47.7°F8.7°C 46.9°F8.3°C 92% 2.0 mph NE3.2 kmh NE 9.0 mph14.5 kmh 30.00 in1015.9 mb 0.07 in1.8 mm 0.90 in22.9 mm 0.17 in4.3 mm
12:24 PM 47.7°F8.7°C 46.9°F8.3°C 92% 3.0 mph E4.8 kmh E 9.0 mph14.5 kmh 30.00 in1015.9 mb 0.07 in1.8 mm 0.00 in0.0 mm 0.17 in4.3 mm
12:26 PM 47.7°F8.7°C 46.9°F8.3°C 92% 3.0 mph NE4.8 kmh NE 9.0 mph14.5 kmh 30.00 in1015.9 mb 0.07 in1.8 mm 0.00 in0.0 mm 0.18 in4.6 mm
12:28 PM 47.6°F8.7°C 46.8°F8.2°C 92% 2.0 mph NE3.2 kmh NE 9.0 mph14.5 kmh 29.99 in1015.6 mb 0.09 in2.3 mm 0.60 in15.2 mm 0.18 in4.6 mm
12:30 PM 47.6°F8.7°C 46.8°F8.2°C 92% 4.0 mph NE6.4 kmh NE 9.0 mph14.5 kmh 30.00 in1015.9 mb 0.09 in2.3 mm 0.00 in0.0 mm 0.18 in4.6 mm
12:32 PM 47.6°F8.7°C 46.8°F8.2°C 92% 7.0 mph NNE11.3 kmh NNE 10.0 mph16.1 kmh 30.00 in1015.9 mb 0.09 in2.3 mm 0.00 in0.0 mm 0.19 in4.8 mm
12:34 PM 47.6°F8.7°C 46.8°F8.2°C 92% 3.0 mph NE4.8 kmh NE 10.0 mph16.1 kmh 29.99 in1015.6 mb 0.10 in2.5 mm 0.30 in7.6 mm 0.19 in4.8 mm
12:36 PM 47.6°F8.7°C 47.1°F8.4°C 93% 2.0 mph NE3.2 kmh NE 10.0 mph16.1 kmh 29.99 in1015.6 mb 0.10 in2.5 mm 0.00 in0.0 mm 0.20 in5.1 mm
12:38 PM 47.6°F8.7°C 47.1°F8.4°C 93% 4.0 mph NNE6.4 kmh NNE 10.0 mph16.1 kmh 29.99 in1015.6 mb 0.10 in2.5 mm 0.00 in0.0 mm 0.20 in5.1 mm
12:40 PM 47.6°F8.7°C 47.1°F8.4°C 93% 6.0 mph NE9.7 kmh NE 10.0 mph16.1 kmh 29.99 in1015.6 mb 0.11 in2.8 mm 0.30 in7.6 mm 0.20 in5.1 mm
12:42 PM 47.6°F8.7°C 47.1°F8.4°C 93% 5.0 mph N8.0 kmh N 11.0 mph17.7 kmh 29.99 in1015.6 mb 0.11 in2.8 mm 0.00 in0.0 mm 0.20 in5.1 mm
12:44 PM 47.6°F8.7°C 47.1°F8.4°C 93% 5.0 mph NE8.0 kmh NE 11.0 mph17.7 kmh 29.99 in1015.6 mb 0.11 in2.8 mm 0.00 in0.0 mm 0.21 in5.3 mm
12:46 PM 47.6°F8.7°C 46.8°F8.2°C 92% 4.0 mph NE6.4 kmh NE 11.0 mph17.7 kmh 29.99 in1015.6 mb 0.09 in2.3 mm 0.00 in0.0 mm 0.21 in5.3 mm
12:48 PM 47.6°F8.7°C 47.1°F8.4°C 93% 4.0 mph NE6.4 kmh NE 11.0 mph17.7 kmh 30.00 in1015.9 mb 0.08 in2.0 mm 0.00 in0.0 mm 0.21 in5.3 mm
12:50 PM 47.7°F8.7°C 47.2°F8.4°C 93% 3.0 mph NE4.8 kmh NE 11.0 mph17.7 kmh 29.99 in1015.6 mb 0.08 in2.0 mm 0.00 in0.0 mm 0.22 in5.6 mm
12:52 PM 47.6°F8.7°C 46.8°F8.2°C 92% 5.0 mph NE8.0 kmh NE 11.0 mph17.7 kmh 29.99 in1015.6 mb 0.08 in2.0 mm 0.00 in0.0 mm 0.22 in5.6 mm
12:54 PM 47.6°F8.7°C 46.8°F8.2°C 92% 3.0 mph NE4.8 kmh NE 11.0 mph17.7 kmh 29.99 in1015.6 mb 0.09 in2.3 mm 0.30 in7.6 mm 0.22 in5.6 mm
12:56 PM 47.6°F8.7°C 46.8°F8.2°C 92% 8.0 mph NNE12.9 kmh NNE 11.0 mph17.7 kmh 29.99 in1015.6 mb 0.09 in2.3 mm 0.00 in0.0 mm 0.23 in5.8 mm
12:58 PM 47.5°F8.6°C 46.7°F8.2°C 92% 5.0 mph ENE8.0 kmh ENE 11.0 mph17.7 kmh 29.99 in1015.6 mb 0.09 in2.3 mm 0.00 in0.0 mm 0.23 in5.8 mm
01:00 PM 47.5°F8.6°C 46.7°F8.2°C 92% 4.0 mph NE6.4 kmh NE 11.0 mph17.7 kmh 29.98 in1015.2 mb 0.09 in2.3 mm 0.00 in0.0 mm 0.23 in5.8 mm
01:02 PM 47.5°F8.6°C 46.7°F8.2°C 92% 5.0 mph NNE8.0 kmh NNE 10.0 mph16.1 kmh 29.98 in1015.2 mb 0.07 in1.8 mm 0.00 in0.0 mm 0.23 in5.8 mm
01:04 PM 47.5°F8.6°C 46.7°F8.2°C 92% 6.0 mph ENE9.7 kmh ENE 10.0 mph16.1 kmh 29.98 in1015.2 mb 0.05 in1.3 mm 0.00 in0.0 mm 0.23 in5.8 mm
01:06 PM 47.5°F8.6°C 46.7°F8.2°C 92% 6.0 mph NE9.7 kmh NE 11.0 mph17.7 kmh 29.98 in1015.2 mb 0.05 in1.3 mm 0.00 in0.0 mm 0.23 in5.8 mm
01:08 PM 47.4°F8.6°C 46.6°F8.1°C 92% 9.0 mph NE14.5 kmh NE 12.0 mph19.3 kmh 29.98 in1015.2 mb 0.04 in1.0 mm 0.00 in0.0 mm 0.23 in5.8 mm
01:10 PM 47.4°F8.6°C 46.6°F8.1°C 92% 3.0 mph ENE4.8 kmh ENE 12.0 mph19.3 kmh 29.98 in1015.2 mb 0.04 in1.0 mm 0.00 in0.0 mm 0.24 in6.1 mm
01:12 PM 47.4°F8.6°C 46.6°F8.1°C 92% 9.0 mph N14.5 kmh N 13.0 mph20.9 kmh 29.98 in1015.2 mb 0.04 in1.0 mm 0.00 in0.0 mm 0.24 in6.1 mm
01:14 PM 47.4°F8.6°C 46.6°F8.1°C 92% 6.0 mph NNE9.7 kmh NNE 13.0 mph20.9 kmh 29.97 in1014.9 mb 0.10 in2.5 mm 1.80 in45.7 mm 0.24 in6.1 mm
01:16 PM 47.4°F8.6°C 46.6°F8.1°C 92% 11.0 mph NE17.7 kmh NE 13.0 mph20.9 kmh 29.97 in1014.9 mb 0.10 in2.5 mm 0.00 in0.0 mm 0.25 in6.4 mm
01:18 PM 47.4°F8.6°C 46.6°F8.1°C 92% 8.0 mph N12.9 kmh N 13.0 mph20.9 kmh 29.97 in1014.9 mb 0.10 in2.5 mm 0.00 in0.0 mm 0.25 in6.4 mm
01:20 PM 47.4°F8.6°C 46.6°F8.1°C 92% 7.0 mph NNE11.3 kmh NNE 13.0 mph20.9 kmh 29.97 in1014.9 mb 0.10 in2.5 mm 0.00 in0.0 mm 0.25 in6.4 mm
01:22 PM 47.3°F8.5°C 46.5°F8.1°C 92% 6.0 mph NE9.7 kmh NE 13.0 mph20.9 kmh 29.97 in1014.9 mb 0.10 in2.5 mm 0.00 in0.0 mm 0.26 in6.6 mm
01:24 PM 47.2°F8.4°C 46.4°F8.0°C 92% 9.0 mph NNE14.5 kmh NNE 13.0 mph20.9 kmh 29.97 in1014.9 mb 0.10 in2.5 mm 0.00 in0.0 mm 0.26 in6.6 mm
01:26 PM 47.2°F8.4°C 46.4°F8.0°C 92% 6.0 mph NE9.7 kmh NE 13.0 mph20.9 kmh 29.97 in1014.9 mb 0.11 in2.8 mm 0.30 in7.6 mm 0.26 in6.6 mm
01:28 PM 47.2°F8.4°C 46.4°F8.0°C 92% 4.0 mph NE6.4 kmh NE 13.0 mph20.9 kmh 29.97 in1014.9 mb 0.11 in2.8 mm 0.00 in0.0 mm 0.27 in6.9 mm
01:30 PM 47.1°F8.4°C 46.3°F7.9°C 92% 5.0 mph 8.0 kmh 13.0 mph20.9 kmh 29.97 in1014.9 mb 0.11 in2.8 mm 0.00 in0.0 mm 0.27 in6.9 mm
01:32 PM 47.1°F8.4°C 46.3°F7.9°C 92% 4.0 mph NE6.4 kmh NE 11.0 mph17.7 kmh 29.96 in1014.6 mb 0.08 in2.0 mm 0.00 in0.0 mm 0.27 in6.9 mm
01:34 PM 47.1°F8.4°C 46.3°F7.9°C 92% 5.0 mph NNE8.0 kmh NNE 13.0 mph20.9 kmh 29.96 in1014.6 mb 0.07 in1.8 mm 0.00 in0.0 mm 0.27 in6.9 mm
01:36 PM 47.1°F8.4°C 46.3°F7.9°C 92% 6.0 mph NE9.7 kmh NE 13.0 mph20.9 kmh 29.96 in1014.6 mb 0.06 in1.5 mm 0.00 in0.0 mm 0.27 in6.9 mm
01:38 PM 47.1°F8.4°C 46.3°F7.9°C 92% 2.0 mph NE3.2 kmh NE 13.0 mph20.9 kmh 29.96 in1014.6 mb 0.06 in1.5 mm 0.00 in0.0 mm 0.28 in7.1 mm
01:40 PM 47.1°F8.4°C 46.3°F7.9°C 92% 3.0 mph NE4.8 kmh NE 15.0 mph24.1 kmh 29.96 in1014.6 mb 0.06 in1.5 mm 0.00 in0.0 mm 0.28 in7.1 mm
01:42 PM 47.1°F8.4°C 46.3°F7.9°C 92% 6.0 mph NE9.7 kmh NE 15.0 mph24.1 kmh 29.96 in1014.6 mb 0.06 in1.5 mm 0.00 in0.0 mm 0.28 in7.1 mm
01:44 PM 47.0°F8.3°C 46.2°F7.9°C 92% 4.0 mph NNE6.4 kmh NNE 15.0 mph24.1 kmh 29.96 in1014.6 mb 0.06 in1.5 mm 0.00 in0.0 mm 0.28 in7.1 mm
01:46 PM 47.1°F8.4°C 46.3°F7.9°C 92% 3.0 mph NE4.8 kmh NE 15.0 mph24.1 kmh 29.96 in1014.6 mb 0.05 in1.3 mm 0.00 in0.0 mm 0.28 in7.1 mm
01:48 PM 47.1°F8.4°C 46.3°F7.9°C 92% 8.0 mph NE12.9 kmh NE 15.0 mph24.1 kmh 29.96 in1014.6 mb 0.04 in1.0 mm 0.00 in0.0 mm 0.28 in7.1 mm
01:50 PM 47.1°F8.4°C 46.3°F7.9°C 92% 6.0 mph NNE9.7 kmh NNE 15.0 mph24.1 kmh 29.96 in1014.6 mb 0.04 in1.0 mm 0.00 in0.0 mm 0.28 in7.1 mm
01:52 PM 47.1°F8.4°C 46.3°F7.9°C 92% 6.0 mph NE9.7 kmh NE 15.0 mph24.1 kmh 29.96 in1014.6 mb 0.00 in0.0 mm 0.00 in0.0 mm 0.28 in7.1 mm
01:54 PM 47.1°F8.4°C 46.3°F7.9°C 92% 7.0 mph NE11.3 kmh NE 15.0 mph24.1 kmh 29.96 in1014.6 mb 0.00 in0.0 mm 0.00 in0.0 mm 0.28 in7.1 mm
01:56 PM 47.1°F8.4°C 46.3°F7.9°C 92% 4.0 mph NE6.4 kmh NE 15.0 mph24.1 kmh 29.96 in1014.6 mb 0.00 in0.0 mm 0.00 in0.0 mm 0.29 in7.4 mm
01:58 PM 47.1°F8.4°C 46.3°F7.9°C 92% 14.0 mph NE22.5 kmh NE 15.0 mph24.1 kmh 29.95 in1014.2 mb 0.00 in0.0 mm 0.00 in0.0 mm 0.29 in7.4 mm
02:00 PM 47.1°F8.4°C 46.3°F7.9°C 92% 10.0 mph N16.1 kmh N 14.0 mph22.5 kmh 29.95 in1014.2 mb 0.00 in0.0 mm 0.00 in0.0 mm 0.29 in7.4 mm
02:02 PM 47.1°F8.4°C 46.3°F7.9°C 92% 5.0 mph NNE8.0 kmh NNE 14.0 mph22.5 kmh 29.96 in1014.6 mb 0.00 in0.0 mm 0.00 in0.0 mm 0.29 in7.4 mm
02:04 PM 47.1°F8.4°C 46.3°F7.9°C 92% 10.0 mph NW16.1 kmh NW 14.0 mph22.5 kmh 29.95 in1014.2 mb 0.00 in0.0 mm 0.00 in0.0 mm 0.29 in7.4 mm
02:06 PM 47.1°F8.4°C 46.3°F7.9°C 92% 5.0 mph NE8.0 kmh NE 14.0 mph22.5 kmh 29.95 in1014.2 mb 0.00 in0.0 mm 0.00 in0.0 mm 0.29 in7.4 mm
02:08 PM 47.1°F8.4°C 46.3°F7.9°C 92% 8.0 mph ENE12.9 kmh ENE 14.0 mph22.5 kmh 29.95 in1014.2 mb 0.00 in0.0 mm 0.00 in0.0 mm 0.29 in7.4 mm
02:10 PM 47.1°F8.4°C 46.3°F7.9°C 92% 11.0 mph NE17.7 kmh NE 13.0 mph20.9 kmh 29.95 in1014.2 mb 0.00 in0.0 mm 0.00 in0.0 mm 0.29 in7.4 mm
02:12 PM 47.1°F8.4°C 46.3°F7.9°C 92% 5.0 mph NNE8.0 kmh NNE 15.0 mph24.1 kmh 29.95 in1014.2 mb 0.00 in0.0 mm 0.00 in0.0 mm 0.29 in7.4 mm
02:14 PM 47.0°F8.3°C 46.2°F7.9°C 92% 3.0 mph NE4.8 kmh NE 15.0 mph24.1 kmh 29.94 in1013.9 mb 0.00 in0.0 mm 0.00 in0.0 mm 0.30 in7.6 mm
02:16 PM 47.1°F8.4°C 46.3°F7.9°C 92% 9.0 mph N14.5 kmh N 15.0 mph24.1 kmh 29.95 in1014.2 mb 0.00 in0.0 mm 0.00 in0.0 mm 0.30 in7.6 mm
02:18 PM 47.0°F8.3°C 46.2°F7.9°C 92% 9.0 mph NE14.5 kmh NE 15.0 mph24.1 kmh 29.95 in1014.2 mb 0.00 in0.0 mm 0.00 in0.0 mm 0.30 in7.6 mm
02:20 PM 47.0°F8.3°C 46.2°F7.9°C 92% 7.0 mph NE11.3 kmh NE 15.0 mph24.1 kmh 29.95 in1014.2 mb 0.08 in2.0 mm 2.40 in61.0 mm 0.31 in7.9 mm
02:22 PM 47.0°F8.3°C 46.2°F7.9°C 92% 3.0 mph NE4.8 kmh NE 15.0 mph24.1 kmh 29.95 in1014.2 mb 0.08 in2.0 mm 0.00 in0.0 mm 0.31 in7.9 mm
02:24 PM 47.0°F8.3°C 46.2°F7.9°C 92% 6.0 mph NE9.7 kmh NE 15.0 mph24.1 kmh 29.95 in1014.2 mb 0.08 in2.0 mm 0.00 in0.0 mm 0.31 in7.9 mm
02:26 PM 46.9°F8.3°C 46.1°F7.8°C 92% 3.0 mph NNE4.8 kmh NNE 15.0 mph24.1 kmh 29.95 in1014.2 mb 0.09 in2.3 mm 0.30 in7.6 mm 0.31 in7.9 mm
02:28 PM 47.0°F8.3°C 46.2°F7.9°C 92% 11.0 mph NE17.7 kmh NE 15.0 mph24.1 kmh 29.95 in1014.2 mb 0.09 in2.3 mm 0.00 in0.0 mm 0.32 in8.1 mm
02:30 PM 47.0°F8.3°C 46.2°F7.9°C 92% 4.0 mph NNE6.4 kmh NNE 15.0 mph24.1 kmh 29.95 in1014.2 mb 0.09 in2.3 mm 0.00 in0.0 mm 0.32 in8.1 mm
02:32 PM 46.9°F8.3°C 46.1°F7.8°C 92% 4.0 mph NNW6.4 kmh NNW 14.0 mph22.5 kmh 29.95 in1014.2 mb 0.09 in2.3 mm 0.00 in0.0 mm 0.32 in8.1 mm
02:34 PM 46.9°F8.3°C 46.4°F8.0°C 93% 5.0 mph ENE8.0 kmh ENE 14.0 mph22.5 kmh 29.95 in1014.2 mb 0.07 in1.8 mm 0.00 in0.0 mm 0.32 in8.1 mm
02:36 PM 46.9°F8.3°C 46.4°F8.0°C 93% 5.0 mph NE8.0 kmh NE 14.0 mph22.5 kmh 29.95 in1014.2 mb 0.06 in1.5 mm 0.00 in0.0 mm 0.32 in8.1 mm
02:38 PM 47.0°F8.3°C 46.5°F8.1°C 93% 5.0 mph N8.0 kmh N 14.0 mph22.5 kmh 29.94 in1013.9 mb 0.05 in1.3 mm 0.00 in0.0 mm 0.32 in8.1 mm
02:40 PM 46.9°F8.3°C 46.4°F8.0°C 93% 6.0 mph NE9.7 kmh NE 14.0 mph22.5 kmh 29.94 in1013.9 mb 0.05 in1.3 mm 0.00 in0.0 mm 0.33 in8.4 mm
02:42 PM 47.0°F8.3°C 46.5°F8.1°C 93% 6.0 mph NNE9.7 kmh NNE 14.0 mph22.5 kmh 29.94 in1013.9 mb 0.11 in2.8 mm 1.80 in45.7 mm 0.33 in8.4 mm
02:44 PM 47.0°F8.3°C 46.5°F8.1°C 93% 10.0 mph NE16.1 kmh NE 16.0 mph25.7 kmh 29.94 in1013.9 mb 0.11 in2.8 mm 0.00 in0.0 mm 0.34 in8.6 mm
02:46 PM 47.1°F8.4°C 46.6°F8.1°C 93% 4.0 mph NE6.4 kmh NE 16.0 mph25.7 kmh 29.94 in1013.9 mb 0.46 in11.7 mm 10.50 in266.7 mm 0.35 in8.9 mm
02:48 PM 47.0°F8.3°C 46.5°F8.1°C 93% 3.0 mph NE4.8 kmh NE 16.0 mph25.7 kmh 29.94 in1013.9 mb 0.38 in9.7 mm 0.00 in0.0 mm 0.36 in9.1 mm
02:50 PM 47.0°F8.3°C 46.5°F8.1°C 93% 12.0 mph NE19.3 kmh NE 16.0 mph25.7 kmh 29.94 in1013.9 mb 0.35 in8.9 mm 0.00 in0.0 mm 0.37 in9.4 mm
02:52 PM 46.9°F8.3°C 46.4°F8.0°C 93% 4.0 mph E6.4 kmh E 16.0 mph25.7 kmh 29.94 in1013.9 mb 0.16 in4.1 mm 0.00 in0.0 mm 0.38 in9.7 mm
02:54 PM 46.9°F8.3°C 46.4°F8.0°C 93% 7.0 mph NE11.3 kmh NE 16.0 mph25.7 kmh 29.94 in1013.9 mb 0.11 in2.8 mm 0.00 in0.0 mm 0.38 in9.7 mm
02:56 PM 47.0°F8.3°C 46.5°F8.1°C 93% 6.0 mph ESE9.7 kmh ESE 16.0 mph25.7 kmh 29.95 in1014.2 mb 0.11 in2.8 mm 0.00 in0.0 mm 0.39 in9.9 mm
02:58 PM 47.0°F8.3°C 46.5°F8.1°C 93% 3.0 mph ENE4.8 kmh ENE 16.0 mph25.7 kmh 29.95 in1014.2 mb 0.11 in2.8 mm 0.00 in0.0 mm 0.39 in9.9 mm
03:00 PM 47.0°F8.3°C 46.5°F8.1°C 93% 9.0 mph N14.5 kmh N 16.0 mph25.7 kmh 29.95 in1014.2 mb 0.12 in3.0 mm 0.01 in0.3 mm 0.39 in9.9 mm
03:02 PM 47.1°F8.4°C 46.6°F8.1°C 93% 5.0 mph NE8.0 kmh NE 16.0 mph25.7 kmh 29.95 in1014.2 mb 0.19 in4.8 mm 2.10 in53.3 mm 0.40 in10.2 mm
03:04 PM 47.1°F8.4°C 46.6°F8.1°C 93% 3.0 mph N4.8 kmh N 15.0 mph24.1 kmh 29.95 in1014.2 mb 0.19 in4.8 mm 0.00 in0.0 mm 0.41 in10.4 mm
03:06 PM 47.1°F8.4°C 46.6°F8.1°C 93% 10.0 mph NE16.1 kmh NE 15.0 mph24.1 kmh 29.95 in1014.2 mb 0.14 in3.6 mm 0.00 in0.0 mm 0.41 in10.4 mm
03:08 PM 47.2°F8.4°C 46.9°F8.3°C 94% 12.0 mph NE19.3 kmh NE 15.0 mph24.1 kmh 29.95 in1014.2 mb 0.13 in3.3 mm 0.00 in0.0 mm 0.41 in10.4 mm
03:10 PM 47.2°F8.4°C 46.9°F8.3°C 94% 8.0 mph ENE12.9 kmh ENE 15.0 mph24.1 kmh 29.95 in1014.2 mb 0.28 in7.1 mm 4.50 in114.3 mm 0.42 in10.7 mm
03:12 PM 47.3°F8.5°C 47.0°F8.3°C 94% 6.0 mph ENE9.7 kmh ENE 15.0 mph24.1 kmh 29.95 in1014.2 mb 0.20 in5.1 mm 0.00 in0.0 mm 0.43 in10.9 mm
03:14 PM 47.4°F8.6°C 47.1°F8.4°C 94% 3.0 mph NE4.8 kmh NE 14.0 mph22.5 kmh 29.95 in1014.2 mb 0.20 in5.1 mm 0.00 in0.0 mm 0.44 in11.2 mm
03:16 PM 47.4°F8.6°C 47.1°F8.4°C 94% 5.0 mph NE8.0 kmh NE 14.0 mph22.5 kmh 29.95 in1014.2 mb 0.16 in4.1 mm 0.00 in0.0 mm 0.44 in11.2 mm
03:18 PM 47.4°F8.6°C 47.1°F8.4°C 94% 4.0 mph NE6.4 kmh NE 14.0 mph22.5 kmh 29.95 in1014.2 mb 0.16 in4.1 mm 0.00 in0.0 mm 0.45 in11.4 mm
03:20 PM 47.5°F8.6°C 47.2°F8.4°C 94% 6.0 mph ENE9.7 kmh ENE 14.0 mph22.5 kmh 29.95 in1014.2 mb 0.13 in3.3 mm 0.00 in0.0 mm 0.45 in11.4 mm
03:22 PM 47.6°F8.7°C 47.3°F8.5°C 94% 5.0 mph NE8.0 kmh NE 14.0 mph22.5 kmh 29.95 in1014.2 mb 0.09 in2.3 mm 0.00 in0.0 mm 0.45 in11.4 mm
03:24 PM 47.6°F8.7°C 47.3°F8.5°C 94% 6.0 mph NE9.7 kmh NE 13.0 mph20.9 kmh 29.95 in1014.2 mb 0.09 in2.3 mm 0.00 in0.0 mm 0.46 in11.7 mm
03:26 PM 47.6°F8.7°C 47.3°F8.5°C 94% 5.0 mph NE8.0 kmh NE 13.0 mph20.9 kmh 29.95 in1014.2 mb 0.09 in2.3 mm 0.00 in0.0 mm 0.46 in11.7 mm
03:28 PM 47.7°F8.7°C 47.4°F8.6°C 94% 8.0 mph NE12.9 kmh NE 13.0 mph20.9 kmh 29.95 in1014.2 mb 0.12 in3.0 mm 0.90 in22.9 mm 0.46 in11.7 mm
03:30 PM 47.7°F8.7°C 47.4°F8.6°C 94% 4.0 mph NNE6.4 kmh NNE 14.0 mph22.5 kmh 29.95 in1014.2 mb 0.12 in3.0 mm 0.00 in0.0 mm 0.47 in11.9 mm
03:32 PM 47.8°F8.8°C 47.5°F8.6°C 94% 5.0 mph NE8.0 kmh NE 14.0 mph22.5 kmh 29.95 in1014.2 mb 0.12 in3.0 mm 0.00 in0.0 mm 0.47 in11.9 mm
03:34 PM 47.8°F8.8°C 47.3°F8.5°C 93% 4.0 mph NE6.4 kmh NE 14.0 mph22.5 kmh 29.95 in1014.2 mb 0.12 in3.0 mm 0.00 in0.0 mm 0.48 in12.2 mm
03:36 PM 47.8°F8.8°C 47.5°F8.6°C 94% 9.0 mph NNE14.5 kmh NNE 14.0 mph22.5 kmh 29.95 in1014.2 mb 0.12 in3.0 mm 0.00 in0.0 mm 0.48 in12.2 mm
03:38 PM 47.8°F8.8°C 47.5°F8.6°C 94% 8.0 mph E12.9 kmh E 14.0 mph22.5 kmh 29.95 in1014.2 mb 0.12 in3.0 mm 0.00 in0.0 mm 0.48 in12.2 mm
03:40 PM 47.8°F8.8°C 47.5°F8.6°C 94% 1.0 mph NE1.6 kmh NE 14.0 mph22.5 kmh 29.96 in1014.6 mb 0.12 in3.0 mm 0.00 in0.0 mm 0.49 in12.4 mm
03:42 PM 47.8°F8.8°C 47.5°F8.6°C 94% 3.0 mph N4.8 kmh N 14.0 mph22.5 kmh 29.96 in1014.6 mb 0.12 in3.0 mm 0.00 in0.0 mm 0.49 in12.4 mm
03:44 PM 47.8°F8.8°C 47.3°F8.5°C 93% 5.0 mph 8.0 kmh 14.0 mph22.5 kmh 29.95 in1014.2 mb 0.08 in2.0 mm 0.00 in0.0 mm 0.49 in12.4 mm
03:46 PM 47.8°F8.8°C 47.5°F8.6°C 94% 4.0 mph NE6.4 kmh NE 14.0 mph22.5 kmh 29.95 in1014.2 mb 0.07 in1.8 mm 0.00 in0.0 mm 0.49 in12.4 mm
03:48 PM 47.8°F8.8°C 47.5°F8.6°C 94% 3.0 mph ENE4.8 kmh ENE 14.0 mph22.5 kmh 29.95 in1014.2 mb 0.07 in1.8 mm 0.00 in0.0 mm 0.50 in12.7 mm
03:50 PM 47.8°F8.8°C 47.5°F8.6°C 94% 7.0 mph NE11.3 kmh NE 12.0 mph19.3 kmh 29.95 in1014.2 mb 0.07 in1.8 mm 0.00 in0.0 mm 0.50 in12.7 mm
03:52 PM 47.8°F8.8°C 47.3°F8.5°C 93% 4.0 mph NE6.4 kmh NE 13.0 mph20.9 kmh 29.95 in1014.2 mb 0.07 in1.8 mm 0.00 in0.0 mm 0.50 in12.7 mm
03:54 PM 47.8°F8.8°C 47.3°F8.5°C 93% 12.0 mph NE19.3 kmh NE 14.0 mph22.5 kmh 29.95 in1014.2 mb 0.07 in1.8 mm 0.00 in0.0 mm 0.50 in12.7 mm
03:56 PM 47.8°F8.8°C 47.3°F8.5°C 93% 13.0 mph ENE20.9 kmh ENE 15.0 mph24.1 kmh 29.95 in1014.2 mb 0.07 in1.8 mm 0.00 in0.0 mm 0.50 in12.7 mm
03:58 PM 47.8°F8.8°C 47.3°F8.5°C 93% 5.0 mph ENE8.0 kmh ENE 16.0 mph25.7 kmh 29.95 in1014.2 mb 0.07 in1.8 mm 0.00 in0.0 mm 0.51 in13.0 mm
04:00 PM 47.8°F8.8°C 47.3°F8.5°C 93% 4.0 mph NE6.4 kmh NE 16.0 mph25.7 kmh 29.95 in1014.2 mb 0.07 in1.8 mm 0.00 in0.0 mm 0.51 in13.0 mm
04:02 PM 47.8°F8.8°C 47.5°F8.6°C 94% 10.0 mph NE16.1 kmh NE 16.0 mph25.7 kmh 29.95 in1014.2 mb 0.07 in1.8 mm 0.00 in0.0 mm 0.51 in13.0 mm
04:04 PM 47.8°F8.8°C 47.5°F8.6°C 94% 4.0 mph NE6.4 kmh NE 16.0 mph25.7 kmh 29.95 in1014.2 mb 0.06 in1.5 mm 0.00 in0.0 mm 0.51 in13.0 mm
04:06 PM 47.8°F8.8°C 47.5°F8.6°C 94% 4.0 mph NE6.4 kmh NE 16.0 mph25.7 kmh 29.94 in1013.9 mb 0.06 in1.5 mm 0.00 in0.0 mm 0.51 in13.0 mm
04:08 PM 47.9°F8.8°C 47.6°F8.7°C 94% 7.0 mph NE11.3 kmh NE 16.0 mph25.7 kmh 29.95 in1014.2 mb 0.06 in1.5 mm 0.00 in0.0 mm 0.52 in13.2 mm
04:10 PM 47.9°F8.8°C 47.6°F8.7°C 94% 7.0 mph NE11.3 kmh NE 16.0 mph25.7 kmh 29.95 in1014.2 mb 0.06 in1.5 mm 0.00 in0.0 mm 0.52 in13.2 mm
04:12 PM 47.9°F8.8°C 47.6°F8.7°C 94% 8.0 mph ENE12.9 kmh ENE 16.0 mph25.7 kmh 29.95 in1014.2 mb 0.06 in1.5 mm 0.00 in0.0 mm 0.52 in13.2 mm
04:14 PM 48.0°F8.9°C 47.7°F8.7°C 94% 8.0 mph ENE12.9 kmh ENE 20.0 mph32.2 kmh 29.95 in1014.2 mb 0.07 in1.8 mm 0.30 in7.6 mm 0.52 in13.2 mm
04:16 PM 48.0°F8.9°C 47.7°F8.7°C 94% 14.0 mph NNE22.5 kmh NNE 20.0 mph32.2 kmh 29.95 in1014.2 mb 0.07 in1.8 mm 0.00 in0.0 mm 0.53 in13.5 mm
04:18 PM 48.0°F8.9°C 47.7°F8.7°C 94% 12.0 mph NE19.3 kmh NE 20.0 mph32.2 kmh 29.95 in1014.2 mb 0.16 in4.1 mm 2.70 in68.6 mm 0.53 in13.5 mm
04:20 PM 48.1°F8.9°C 47.8°F8.8°C 94% 4.0 mph NE6.4 kmh NE 20.0 mph32.2 kmh 29.94 in1013.9 mb 0.16 in4.1 mm 0.00 in0.0 mm 0.54 in13.7 mm
04:22 PM 48.1°F8.9°C 47.8°F8.8°C 94% 4.0 mph NE6.4 kmh NE 20.0 mph32.2 kmh 29.95 in1014.2 mb 0.12 in3.0 mm 0.00 in0.0 mm 0.54 in13.7 mm
04:24 PM 48.1°F8.9°C 47.8°F8.8°C 94% 8.0 mph E12.9 kmh E 20.0 mph32.2 kmh 29.95 in1014.2 mb 0.12 in3.0 mm 0.00 in0.0 mm 0.54 in13.7 mm
04:26 PM 48.1°F8.9°C 47.8°F8.8°C 94% 4.0 mph NE6.4 kmh NE 20.0 mph32.2 kmh 29.95 in1014.2 mb 0.12 in3.0 mm 0.00 in0.0 mm 0.55 in14.0 mm
04:28 PM 48.2°F9.0°C 47.9°F8.8°C 94% 9.0 mph NE14.5 kmh NE 20.0 mph32.2 kmh 29.95 in1014.2 mb 0.10 in2.5 mm 0.00 in0.0 mm 0.55 in14.0 mm
04:30 PM 48.1°F8.9°C 47.8°F8.8°C 94% 5.0 mph NE8.0 kmh NE 20.0 mph32.2 kmh 29.95 in1014.2 mb 0.07 in1.8 mm 0.00 in0.0 mm 0.55 in14.0 mm
04:32 PM 48.2°F9.0°C 47.9°F8.8°C 94% 2.0 mph ESE3.2 kmh ESE 20.0 mph32.2 kmh 29.95 in1014.2 mb 0.06 in1.5 mm 0.00 in0.0 mm 0.55 in14.0 mm
04:34 PM 48.1°F8.9°C 47.8°F8.8°C 94% 3.0 mph E4.8 kmh E 12.0 mph19.3 kmh 29.94 in1013.9 mb 0.05 in1.3 mm 0.00 in0.0 mm 0.55 in14.0 mm
04:36 PM 48.1°F8.9°C 47.8°F8.8°C 94% 5.0 mph NE8.0 kmh NE 12.0 mph19.3 kmh 29.94 in1013.9 mb 0.05 in1.3 mm 0.00 in0.0 mm 0.55 in14.0 mm
04:38 PM 48.2°F9.0°C 47.9°F8.8°C 94% 5.0 mph NE8.0 kmh NE 12.0 mph19.3 kmh 29.95 in1014.2 mb 0.05 in1.3 mm 0.00 in0.0 mm 0.56 in14.2 mm
04:40 PM 48.2°F9.0°C 47.9°F8.8°C 94% 3.0 mph NE4.8 kmh NE 12.0 mph19.3 kmh 29.95 in1014.2 mb 0.05 in1.3 mm 0.00 in0.0 mm 0.56 in14.2 mm
04:42 PM 48.2°F9.0°C 47.9°F8.8°C 94% 2.0 mph E3.2 kmh E 12.0 mph19.3 kmh 29.95 in1014.2 mb 0.05 in1.3 mm 0.00 in0.0 mm 0.56 in14.2 mm
04:44 PM 48.3°F9.1°C 48.0°F8.9°C 94% 5.0 mph NNE8.0 kmh NNE 12.0 mph19.3 kmh 29.95 in1014.2 mb 0.05 in1.3 mm 0.00 in0.0 mm 0.56 in14.2 mm
04:46 PM 48.3°F9.1°C 48.0°F8.9°C 94% 6.0 mph NNE9.7 kmh NNE 13.0 mph20.9 kmh 29.95 in1014.2 mb 0.05 in1.3 mm 0.00 in0.0 mm 0.56 in14.2 mm
04:48 PM 48.4°F9.1°C 48.1°F8.9°C 94% 10.0 mph ENE16.1 kmh ENE 20.0 mph32.2 kmh 29.95 in1014.2 mb 0.04 in1.0 mm 0.00 in0.0 mm 0.56 in14.2 mm
04:50 PM 48.5°F9.2°C 48.2°F9.0°C 94% 5.0 mph E8.0 kmh E 20.0 mph32.2 kmh 29.95 in1014.2 mb 0.04 in1.0 mm 0.00 in0.0 mm 0.56 in14.2 mm
04:52 PM 48.5°F9.2°C 48.2°F9.0°C 94% 5.0 mph NE8.0 kmh NE 20.0 mph32.2 kmh 29.95 in1014.2 mb 0.00 in0.0 mm 0.00 in0.0 mm 0.56 in14.2 mm
04:54 PM 48.5°F9.2°C 48.2°F9.0°C 94% 22.0 mph ESE35.4 kmh ESE 22.0 mph35.4 kmh 29.95 in1014.2 mb 0.00 in0.0 mm 0.00 in0.0 mm 0.56 in14.2 mm
04:56 PM 48.6°F9.2°C 48.3°F9.1°C 94% 5.0 mph E8.0 kmh E 22.0 mph35.4 kmh 29.94 in1013.9 mb 0.00 in0.0 mm 0.00 in0.0 mm 0.56 in14.2 mm
04:58 PM 48.7°F9.3°C 48.4°F9.1°C 94% 4.0 mph ENE6.4 kmh ENE 22.0 mph35.4 kmh 29.94 in1013.9 mb 0.00 in0.0 mm 0.00 in0.0 mm 0.57 in14.5 mm
05:00 PM 48.6°F9.2°C 48.3°F9.1°C 94% 11.0 mph NE17.7 kmh NE 22.0 mph35.4 kmh 29.94 in1013.9 mb 0.00 in0.0 mm 0.00 in0.0 mm 0.57 in14.5 mm
05:02 PM 48.7°F9.3°C 48.4°F9.1°C 94% 6.0 mph NNE9.7 kmh NNE 22.0 mph35.4 kmh 29.94 in1013.9 mb 0.00 in0.0 mm 0.00 in0.0 mm 0.57 in14.5 mm
05:04 PM 48.7°F9.3°C 48.4°F9.1°C 94% 4.0 mph ENE6.4 kmh ENE 22.0 mph35.4 kmh 29.95 in1014.2 mb 0.09 in2.3 mm 2.70 in68.6 mm 0.58 in14.7 mm
05:06 PM 48.7°F9.3°C 48.4°F9.1°C 94% 4.0 mph E6.4 kmh E 22.0 mph35.4 kmh 29.95 in1014.2 mb 0.09 in2.3 mm 0.00 in0.0 mm 0.58 in14.7 mm
05:08 PM 48.7°F9.3°C 48.4°F9.1°C 94% 3.0 mph NE4.8 kmh NE 22.0 mph35.4 kmh 29.95 in1014.2 mb 0.09 in2.3 mm 0.00 in0.0 mm 0.58 in14.7 mm
05:10 PM 48.7°F9.3°C 48.4°F9.1°C 94% 3.0 mph E4.8 kmh E 22.0 mph35.4 kmh 29.95 in1014.2 mb 0.08 in2.0 mm 0.00 in0.0 mm 0.58 in14.7 mm
05:12 PM 48.7°F9.3°C 48.4°F9.1°C 94% 4.0 mph ENE6.4 kmh ENE 22.0 mph35.4 kmh 29.95 in1014.2 mb 0.07 in1.8 mm 0.00 in0.0 mm 0.58 in14.7 mm
05:14 PM 48.7°F9.3°C 48.2°F9.0°C 93% 2.0 mph NE3.2 kmh NE 22.0 mph35.4 kmh 29.95 in1014.2 mb 0.07 in1.8 mm 0.00 in0.0 mm 0.59 in15.0 mm
05:16 PM 48.7°F9.3°C 48.2°F9.0°C 93% 5.0 mph NE8.0 kmh NE 13.0 mph20.9 kmh 29.95 in1014.2 mb 0.07 in1.8 mm 0.00 in0.0 mm 0.59 in15.0 mm
05:18 PM 48.7°F9.3°C 48.2°F9.0°C 93% 4.0 mph NE6.4 kmh NE 13.0 mph20.9 kmh 29.95 in1014.2 mb 0.07 in1.8 mm 0.00 in0.0 mm 0.59 in15.0 mm
05:20 PM 48.7°F9.3°C 48.4°F9.1°C 94% 4.0 mph NE6.4 kmh NE 13.0 mph20.9 kmh 29.95 in1014.2 mb 0.07 in1.8 mm 0.00 in0.0 mm 0.59 in15.0 mm
05:22 PM 48.8°F9.3°C 48.5°F9.2°C 94% 12.0 mph ENE19.3 kmh ENE 13.0 mph20.9 kmh 29.95 in1014.2 mb 0.05 in1.3 mm 0.00 in0.0 mm 0.59 in15.0 mm
05:24 PM 48.8°F9.3°C 48.5°F9.2°C 94% 2.0 mph NNE3.2 kmh NNE 13.0 mph20.9 kmh 29.95 in1014.2 mb 0.05 in1.3 mm 0.00 in0.0 mm 0.59 in15.0 mm
05:26 PM 48.8°F9.3°C 48.5°F9.2°C 94% 10.0 mph N16.1 kmh N 14.0 mph22.5 kmh 29.95 in1014.2 mb 0.04 in1.0 mm 0.00 in0.0 mm 0.59 in15.0 mm
05:28 PM 48.8°F9.3°C 48.5°F9.2°C 94% 3.0 mph NNE4.8 kmh NNE 14.0 mph22.5 kmh 29.95 in1014.2 mb 0.00 in0.0 mm 0.00 in0.0 mm 0.59 in15.0 mm
05:30 PM 48.9°F9.4°C 48.6°F9.2°C 94% 5.0 mph N8.0 kmh N 14.0 mph22.5 kmh 29.95 in1014.2 mb 0.00 in0.0 mm 0.00 in0.0 mm 0.59 in15.0 mm
05:32 PM 49.0°F9.4°C 48.7°F9.3°C 94% 7.0 mph E11.3 kmh E 14.0 mph22.5 kmh 29.95 in1014.2 mb 0.00 in0.0 mm 0.00 in0.0 mm 0.59 in15.0 mm
05:34 PM 49.0°F9.4°C 48.7°F9.3°C 94% 1.0 mph NE1.6 kmh NE 14.0 mph22.5 kmh 29.95 in1014.2 mb 0.00 in0.0 mm 0.00 in0.0 mm 0.59 in15.0 mm
05:36 PM 49.0°F9.4°C 48.7°F9.3°C 94% 3.0 mph ENE4.8 kmh ENE 14.0 mph22.5 kmh 29.95 in1014.2 mb 0.00 in0.0 mm 0.00 in0.0 mm 0.59 in15.0 mm
05:38 PM 49.0°F9.4°C 48.7°F9.3°C 94% 5.0 mph NNE8.0 kmh NNE 14.0 mph22.5 kmh 29.95 in1014.2 mb 0.00 in0.0 mm 0.00 in0.0 mm 0.59 in15.0 mm
05:40 PM 49.1°F9.5°C 48.8°F9.3°C 94% 5.0 mph NE8.0 kmh NE 14.0 mph22.5 kmh 29.95 in1014.2 mb 0.00 in0.0 mm 0.00 in0.0 mm 0.59 in15.0 mm
05:42 PM 49.2°F9.6°C 48.9°F9.4°C 94% 4.0 mph ENE6.4 kmh ENE 14.0 mph22.5 kmh 29.95 in1014.2 mb 0.00 in0.0 mm 0.00 in0.0 mm 0.59 in15.0 mm
05:44 PM 49.3°F9.6°C 49.0°F9.4°C 94% 4.0 mph N6.4 kmh N 14.0 mph22.5 kmh 29.95 in1014.2 mb 0.00 in0.0 mm 0.00 in0.0 mm 0.60 in15.2 mm
05:46 PM 49.3°F9.6°C 49.0°F9.4°C 94% 3.0 mph ESE4.8 kmh ESE 14.0 mph22.5 kmh 29.95 in1014.2 mb 0.00 in0.0 mm 0.00 in0.0 mm 0.60 in15.2 mm
05:48 PM 49.3°F9.6°C 49.0°F9.4°C 94% 4.0 mph SE6.4 kmh SE 12.0 mph19.3 kmh 29.95 in1014.2 mb 0.00 in0.0 mm 0.00 in0.0 mm 0.60 in15.2 mm
05:50 PM 49.3°F9.6°C 48.8°F9.3°C 93% 6.0 mph E9.7 kmh E 12.0 mph19.3 kmh 29.95 in1014.2 mb 0.00 in0.0 mm 0.00 in0.0 mm 0.60 in15.2 mm
05:52 PM 49.4°F9.7°C 48.9°F9.4°C 93% 10.0 mph E16.1 kmh E 12.0 mph19.3 kmh 29.95 in1014.2 mb 0.00 in0.0 mm 0.00 in0.0 mm 0.60 in15.2 mm
05:54 PM 49.4°F9.7°C 48.9°F9.4°C 93% 9.0 mph SE14.5 kmh SE 14.0 mph22.5 kmh 29.95 in1014.2 mb 0.00 in0.0 mm 0.00 in0.0 mm 0.60 in15.2 mm
05:56 PM 49.5°F9.7°C 49.0°F9.4°C 93% 5.0 mph NNE8.0 kmh NNE 14.0 mph22.5 kmh 29.94 in1013.9 mb 0.00 in0.0 mm 0.00 in0.0 mm 0.60 in15.2 mm
05:58 PM 49.4°F9.7°C 48.9°F9.4°C 93% 3.0 mph ENE4.8 kmh ENE 14.0 mph22.5 kmh 29.94 in1013.9 mb 0.00 in0.0 mm 0.00 in0.0 mm 0.60 in15.2 mm
06:00 PM 49.4°F9.7°C 48.9°F9.4°C 93% 2.0 mph NNE3.2 kmh NNE 14.0 mph22.5 kmh 29.95 in1014.2 mb 0.00 in0.0 mm 0.00 in0.0 mm 0.60 in15.2 mm
06:02 PM 49.4°F9.7°C 48.9°F9.4°C 93% 2.0 mph NE3.2 kmh NE 14.0 mph22.5 kmh 29.94 in1013.9 mb 0.00 in0.0 mm 0.00 in0.0 mm 0.60 in15.2 mm
06:04 PM 49.4°F9.7°C 48.9°F9.4°C 93% 9.0 mph NNE14.5 kmh NNE 14.0 mph22.5 kmh 29.95 in1014.2 mb 0.00 in0.0 mm 0.00 in0.0 mm 0.60 in15.2 mm
06:06 PM 49.4°F9.7°C 48.9°F9.4°C 93% 10.0 mph E16.1 kmh E 16.0 mph25.7 kmh 29.94 in1013.9 mb 0.00 in0.0 mm 0.00 in0.0 mm 0.61 in15.5 mm
06:08 PM 49.4°F9.7°C 48.9°F9.4°C 93% 14.0 mph NE22.5 kmh NE 16.0 mph25.7 kmh 29.94 in1013.9 mb 0.00 in0.0 mm 0.00 in0.0 mm 0.61 in15.5 mm
06:10 PM 49.4°F9.7°C 48.9°F9.4°C 93% 9.0 mph NNE14.5 kmh NNE 16.0 mph25.7 kmh 29.95 in1014.2 mb 0.00 in0.0 mm 0.00 in0.0 mm 0.61 in15.5 mm
06:12 PM 49.5°F9.7°C 49.0°F9.4°C 93% 3.0 mph NE4.8 kmh NE 16.0 mph25.7 kmh 29.95 in1014.2 mb 0.00 in0.0 mm 0.00 in0.0 mm 0.61 in15.5 mm
06:16 PM 49.5°F9.7°C 49.0°F9.4°C 93% 2.0 mph NE3.2 kmh NE 16.0 mph25.7 kmh 29.95 in1014.2 mb 0.00 in0.0 mm 0.00 in0.0 mm 0.61 in15.5 mm
06:18 PM 49.5°F9.7°C 49.0°F9.4°C 93% 9.0 mph NNE14.5 kmh NNE 16.0 mph25.7 kmh 29.95 in1014.2 mb 0.00 in0.0 mm 0.00 in0.0 mm 0.61 in15.5 mm
06:20 PM 49.4°F9.7°C 48.9°F9.4°C 93% 2.0 mph E3.2 kmh E 16.0 mph25.7 kmh 29.94 in1013.9 mb 0.00 in0.0 mm 0.00 in0.0 mm 0.61 in15.5 mm
06:22 PM 49.4°F9.7°C 48.9°F9.4°C 93% 4.0 mph NE6.4 kmh NE 16.0 mph25.7 kmh 29.94 in1013.9 mb 0.00 in0.0 mm 0.00 in0.0 mm 0.61 in15.5 mm
06:24 PM 49.5°F9.7°C 49.0°F9.4°C 93% 4.0 mph NE6.4 kmh NE 16.0 mph25.7 kmh 29.94 in1013.9 mb 0.00 in0.0 mm 0.00 in0.0 mm 0.61 in15.5 mm
06:26 PM 49.4°F9.7°C 48.9°F9.4°C 93% 4.0 mph ENE6.4 kmh ENE 13.0 mph20.9 kmh 29.95 in1014.2 mb 0.00 in0.0 mm 0.00 in0.0 mm 0.61 in15.5 mm
06:28 PM 49.4°F9.7°C 48.9°F9.4°C 93% 4.0 mph NNE6.4 kmh NNE 14.0 mph22.5 kmh 29.95 in1014.2 mb 0.00 in0.0 mm 0.00 in0.0 mm 0.61 in15.5 mm
06:30 PM 49.4°F9.7°C 48.9°F9.4°C 93% 7.0 mph E11.3 kmh E 14.0 mph22.5 kmh 29.95 in1014.2 mb 0.00 in0.0 mm 0.00 in0.0 mm 0.61 in15.5 mm
06:32 PM 49.4°F9.7°C 48.9°F9.4°C 93% 3.0 mph E4.8 kmh E 14.0 mph22.5 kmh 29.95 in1014.2 mb 0.00 in0.0 mm 0.00 in0.0 mm 0.61 in15.5 mm
06:34 PM 49.4°F9.7°C 48.9°F9.4°C 93% 6.0 mph NE9.7 kmh NE 14.0 mph22.5 kmh 29.94 in1013.9 mb 0.00 in0.0 mm 0.00 in0.0 mm 0.61 in15.5 mm
06:36 PM 49.3°F9.6°C 48.8°F9.3°C 93% 8.0 mph ENE12.9 kmh ENE 14.0 mph22.5 kmh 29.95 in1014.2 mb 0.00 in0.0 mm 0.00 in0.0 mm 0.61 in15.5 mm
06:38 PM 49.4°F9.7°C 48.9°F9.4°C 93% 6.0 mph NE9.7 kmh NE 16.0 mph25.7 kmh 29.95 in1014.2 mb 0.00 in0.0 mm 0.00 in0.0 mm 0.61 in15.5 mm
06:40 PM 49.4°F9.7°C 48.9°F9.4°C 93% 4.0 mph NE6.4 kmh NE 16.0 mph25.7 kmh 29.95 in1014.2 mb 0.00 in0.0 mm 0.00 in0.0 mm 0.61 in15.5 mm
06:42 PM 49.4°F9.7°C 48.9°F9.4°C 93% 4.0 mph NE6.4 kmh NE 16.0 mph25.7 kmh 29.95 in1014.2 mb 0.00 in0.0 mm 0.00 in0.0 mm 0.61 in15.5 mm
06:44 PM 49.4°F9.7°C 48.9°F9.4°C 93% 1.0 mph ENE1.6 kmh ENE 16.0 mph25.7 kmh 29.95 in1014.2 mb 0.00 in0.0 mm 0.00 in0.0 mm 0.61 in15.5 mm
06:46 PM 49.4°F9.7°C 48.9°F9.4°C 93% 4.0 mph ENE6.4 kmh ENE 16.0 mph25.7 kmh 29.95 in1014.2 mb 0.00 in0.0 mm 0.00 in0.0 mm 0.61 in15.5 mm
06:48 PM 49.4°F9.7°C 48.9°F9.4°C 93% 5.0 mph ENE8.0 kmh ENE 16.0 mph25.7 kmh 29.95 in1014.2 mb 0.00 in0.0 mm 0.00 in0.0 mm 0.61 in15.5 mm
06:50 PM 49.4°F9.7°C 48.9°F9.4°C 93% 6.0 mph NE9.7 kmh NE 16.0 mph25.7 kmh 29.95 in1014.2 mb 0.00 in0.0 mm 0.00 in0.0 mm 0.61 in15.5 mm
06:52 PM 49.5°F9.7°C 49.0°F9.4°C 93% 3.0 mph 4.8 kmh 16.0 mph25.7 kmh 29.95 in1014.2 mb 0.00 in0.0 mm 0.00 in0.0 mm 0.61 in15.5 mm
06:54 PM 49.5°F9.7°C 49.0°F9.4°C 93% 2.0 mph E3.2 kmh E 16.0 mph25.7 kmh 29.95 in1014.2 mb 0.00 in0.0 mm 0.00 in0.0 mm 0.61 in15.5 mm
06:56 PM 49.5°F9.7°C 49.0°F9.4°C 93% 3.0 mph NE4.8 kmh NE 16.0 mph25.7 kmh 29.95 in1014.2 mb 0.00 in0.0 mm 0.00 in0.0 mm 0.61 in15.5 mm
06:58 PM 49.5°F9.7°C 49.0°F9.4°C 93% 1.0 mph ESE1.6 kmh ESE 13.0 mph20.9 kmh 29.95 in1014.2 mb 0.00 in0.0 mm 0.00 in0.0 mm 0.61 in15.5 mm
07:00 PM 49.6°F9.8°C 49.1°F9.5°C 93% 3.0 mph NE4.8 kmh NE 13.0 mph20.9 kmh 29.95 in1014.2 mb 0.00 in0.0 mm 0.00 in0.0 mm 0.61 in15.5 mm
07:02 PM 49.6°F9.8°C 49.1°F9.5°C 93% 9.0 mph NE14.5 kmh NE 13.0 mph20.9 kmh 29.95 in1014.2 mb 0.00 in0.0 mm 0.00 in0.0 mm 0.61 in15.5 mm
07:04 PM 49.6°F9.8°C 49.1°F9.5°C 93% 1.0 mph E1.6 kmh E 13.0 mph20.9 kmh 29.95 in1014.2 mb 0.00 in0.0 mm 0.00 in0.0 mm 0.61 in15.5 mm
07:06 PM 49.6°F9.8°C 49.1°F9.5°C 93% 5.0 mph E8.0 kmh E 13.0 mph20.9 kmh 29.95 in1014.2 mb 0.00 in0.0 mm 0.00 in0.0 mm 0.61 in15.5 mm
07:08 PM 49.7°F9.8°C 49.2°F9.6°C 93% 2.0 mph NE3.2 kmh NE 13.0 mph20.9 kmh 29.95 in1014.2 mb 0.00 in0.0 mm 0.00 in0.0 mm 0.61 in15.5 mm
07:10 PM 49.6°F9.8°C 49.1°F9.5°C 93% 4.0 mph NNE6.4 kmh NNE 13.0 mph20.9 kmh 29.95 in1014.2 mb 0.00 in0.0 mm 0.00 in0.0 mm 0.61 in15.5 mm
07:12 PM 49.7°F9.8°C 49.2°F9.6°C 93% 2.0 mph NE3.2 kmh NE 13.0 mph20.9 kmh 29.95 in1014.2 mb 0.00 in0.0 mm 0.00 in0.0 mm 0.61 in15.5 mm
07:14 PM 49.6°F9.8°C 49.1°F9.5°C 93% 4.0 mph NE6.4 kmh NE 13.0 mph20.9 kmh 29.95 in1014.2 mb 0.00 in0.0 mm 0.00 in0.0 mm 0.61 in15.5 mm
07:16 PM 49.7°F9.8°C 49.2°F9.6°C 93% 3.0 mph E4.8 kmh E 13.0 mph20.9 kmh 29.95 in1014.2 mb 0.00 in0.0 mm 0.00 in0.0 mm 0.61 in15.5 mm
07:18 PM 49.7°F9.8°C 49.2°F9.6°C 93% 3.0 mph NE4.8 kmh NE 12.0 mph19.3 kmh 29.95 in1014.2 mb 0.00 in0.0 mm 0.00 in0.0 mm 0.61 in15.5 mm
07:20 PM 49.7°F9.8°C 49.2°F9.6°C 93% 4.0 mph ESE6.4 kmh ESE 12.0 mph19.3 kmh 29.95 in1014.2 mb 0.00 in0.0 mm 0.00 in0.0 mm 0.61 in15.5 mm
07:22 PM 49.7°F9.8°C 49.2°F9.6°C 93% 4.0 mph ESE6.4 kmh ESE 12.0 mph19.3 kmh 29.95 in1014.2 mb 0.00 in0.0 mm 0.00 in0.0 mm 0.61 in15.5 mm
07:24 PM 49.7°F9.8°C 49.2°F9.6°C 93% 2.0 mph NE3.2 kmh NE 12.0 mph19.3 kmh 29.95 in1014.2 mb 0.00 in0.0 mm 0.00 in0.0 mm 0.61 in15.5 mm
07:26 PM 49.7°F9.8°C 49.2°F9.6°C 93% 2.0 mph NE3.2 kmh NE 12.0 mph19.3 kmh 29.95 in1014.2 mb 0.00 in0.0 mm 0.00 in0.0 mm 0.61 in15.5 mm
07:28 PM 49.6°F9.8°C 49.1°F9.5°C 93% Calm Calm 12.0 mph19.3 kmh 29.95 in1014.2 mb 0.00 in0.0 mm 0.00 in0.0 mm 0.61 in15.5 mm
07:30 PM 49.6°F9.8°C 49.1°F9.5°C 93% 4.0 mph ESE6.4 kmh ESE 12.0 mph19.3 kmh 29.95 in1014.2 mb 0.00 in0.0 mm 0.00 in0.0 mm 0.61 in15.5 mm
07:32 PM 49.6°F9.8°C 49.1°F9.5°C 93% 2.0 mph NE3.2 kmh NE 12.0 mph19.3 kmh 29.95 in1014.2 mb 0.00 in0.0 mm 0.00 in0.0 mm 0.61 in15.5 mm
07:34 PM 49.6°F9.8°C 49.1°F9.5°C 93% 11.0 mph NE17.7 kmh NE 12.0 mph19.3 kmh 29.95 in1014.2 mb 0.00 in0.0 mm 0.00 in0.0 mm 0.61 in15.5 mm
07:36 PM 49.6°F9.8°C 49.1°F9.5°C 93% 7.0 mph NE11.3 kmh NE 13.0 mph20.9 kmh 29.95 in1014.2 mb 0.00 in0.0 mm 0.00 in0.0 mm 0.61 in15.5 mm
07:38 PM 49.6°F9.8°C 49.1°F9.5°C 93% 5.0 mph N8.0 kmh N 13.0 mph20.9 kmh 29.95 in1014.2 mb 0.00 in0.0 mm 0.00 in0.0 mm 0.61 in15.5 mm
07:40 PM 49.6°F9.8°C 49.1°F9.5°C 93% 5.0 mph NE8.0 kmh NE 13.0 mph20.9 kmh 29.95 in1014.2 mb 0.00 in0.0 mm 0.00 in0.0 mm 0.61 in15.5 mm
07:42 PM 49.7°F9.8°C 49.2°F9.6°C 93% 4.0 mph E6.4 kmh E 13.0 mph20.9 kmh 29.95 in1014.2 mb 0.00 in0.0 mm 0.00 in0.0 mm 0.61 in15.5 mm
07:44 PM 49.6°F9.8°C 49.1°F9.5°C 93% 3.0 mph NE4.8 kmh NE 13.0 mph20.9 kmh 29.95 in1014.2 mb 0.00 in0.0 mm 0.00 in0.0 mm 0.61 in15.5 mm
07:46 PM 49.6°F9.8°C 49.1°F9.5°C 93% 2.0 mph N3.2 kmh N 13.0 mph20.9 kmh 29.95 in1014.2 mb 0.00 in0.0 mm 0.00 in0.0 mm 0.61 in15.5 mm
07:48 PM 49.6°F9.8°C 49.1°F9.5°C 93% 3.0 mph ENE4.8 kmh ENE 13.0 mph20.9 kmh 29.95 in1014.2 mb 0.00 in0.0 mm 0.00 in0.0 mm 0.61 in15.5 mm
07:50 PM 49.5°F9.7°C 49.0°F9.4°C 93% 2.0 mph NE3.2 kmh NE 13.0 mph20.9 kmh 29.95 in1014.2 mb 0.00 in0.0 mm 0.00 in0.0 mm 0.61 in15.5 mm
07:52 PM 49.5°F9.7°C 49.0°F9.4°C 93% 3.0 mph ENE4.8 kmh ENE 13.0 mph20.9 kmh 29.95 in1014.2 mb 0.00 in0.0 mm 0.00 in0.0 mm 0.61 in15.5 mm
07:54 PM 49.5°F9.7°C 49.0°F9.4°C 93% 3.0 mph NE4.8 kmh NE 13.0 mph20.9 kmh 29.95 in1014.2 mb 0.00 in0.0 mm 0.00 in0.0 mm 0.61 in15.5 mm
07:56 PM 49.5°F9.7°C 49.0°F9.4°C 93% 1.0 mph NE1.6 kmh NE 10.0 mph16.1 kmh 29.95 in1014.2 mb 0.00 in0.0 mm 0.00 in0.0 mm 0.61 in15.5 mm
07:58 PM 49.4°F9.7°C 48.9°F9.4°C 93% 4.0 mph ESE6.4 kmh ESE 13.0 mph20.9 kmh 29.95 in1014.2 mb 0.00 in0.0 mm 0.00 in0.0 mm 0.61 in15.5 mm
08:00 PM 49.5°F9.7°C 49.0°F9.4°C 93% 8.0 mph N12.9 kmh N 13.0 mph20.9 kmh 29.95 in1014.2 mb 0.00 in0.0 mm 0.00 in0.0 mm 0.61 in15.5 mm
08:02 PM 49.5°F9.7°C 49.0°F9.4°C 93% 7.0 mph NE11.3 kmh NE 13.0 mph20.9 kmh 29.95 in1014.2 mb 0.00 in0.0 mm 0.00 in0.0 mm 0.61 in15.5 mm
08:04 PM 49.4°F9.7°C 48.9°F9.4°C 93% 3.0 mph E4.8 kmh E 13.0 mph20.9 kmh 29.95 in1014.2 mb 0.00 in0.0 mm 0.00 in0.0 mm 0.61 in15.5 mm
08:06 PM 49.5°F9.7°C 49.0°F9.4°C 93% 2.0 mph E3.2 kmh E 13.0 mph20.9 kmh 29.95 in1014.2 mb 0.00 in0.0 mm 0.00 in0.0 mm 0.61 in15.5 mm
08:08 PM 49.4°F9.7°C 48.9°F9.4°C 93% 4.0 mph NE6.4 kmh NE 13.0 mph20.9 kmh 29.95 in1014.2 mb 0.00 in0.0 mm 0.00 in0.0 mm 0.61 in15.5 mm
08:10 PM 49.5°F9.7°C 49.0°F9.4°C 93% 1.0 mph E1.6 kmh E 13.0 mph20.9 kmh 29.95 in1014.2 mb 0.00 in0.0 mm 0.00 in0.0 mm 0.61 in15.5 mm
08:12 PM 49.4°F9.7°C 48.9°F9.4°C 93% 13.0 mph ENE20.9 kmh ENE 13.0 mph20.9 kmh 29.95 in1014.2 mb 0.00 in0.0 mm 0.00 in0.0 mm 0.61 in15.5 mm
08:14 PM 49.4°F9.7°C 48.9°F9.4°C 93% 5.0 mph ENE8.0 kmh ENE 13.0 mph20.9 kmh 29.95 in1014.2 mb 0.00 in0.0 mm 0.00 in0.0 mm 0.61 in15.5 mm
08:16 PM 49.4°F9.7°C 48.9°F9.4°C 93% 2.0 mph E3.2 kmh E 13.0 mph20.9 kmh 29.95 in1014.2 mb 0.00 in0.0 mm 0.00 in0.0 mm 0.61 in15.5 mm
08:18 PM 49.4°F9.7°C 48.6°F9.2°C 92% 3.0 mph SE4.8 kmh SE 13.0 mph20.9 kmh 29.95 in1014.2 mb 0.00 in0.0 mm 0.00 in0.0 mm 0.61 in15.5 mm
08:20 PM 49.4°F9.7°C 48.6°F9.2°C 92% 3.0 mph SE4.8 kmh SE 13.0 mph20.9 kmh 29.95 in1014.2 mb 0.00 in0.0 mm 0.00 in0.0 mm 0.61 in15.5 mm
08:22 PM 49.3°F9.6°C 48.5°F9.2°C 92% 5.0 mph NE8.0 kmh NE 13.0 mph20.9 kmh 29.95 in1014.2 mb 0.00 in0.0 mm 0.00 in0.0 mm 0.61 in15.5 mm
08:24 PM 49.3°F9.6°C 48.5°F9.2°C 92% 3.0 mph E4.8 kmh E 13.0 mph20.9 kmh 29.95 in1014.2 mb 0.00 in0.0 mm 0.00 in0.0 mm 0.61 in15.5 mm
08:26 PM 49.4°F9.7°C 48.6°F9.2°C 92% 3.0 mph NNE4.8 kmh NNE 13.0 mph20.9 kmh 29.95 in1014.2 mb 0.00 in0.0 mm 0.00 in0.0 mm 0.61 in15.5 mm
08:28 PM 49.3°F9.6°C 48.5°F9.2°C 92% 4.0 mph NNE6.4 kmh NNE 13.0 mph20.9 kmh 29.95 in1014.2 mb 0.00 in0.0 mm 0.00 in0.0 mm 0.61 in15.5 mm
08:30 PM 49.3°F9.6°C 48.5°F9.2°C 92% 7.0 mph ESE11.3 kmh ESE 13.0 mph20.9 kmh 29.94 in1013.9 mb 0.00 in0.0 mm 0.00 in0.0 mm 0.61 in15.5 mm
08:32 PM 49.3°F9.6°C 48.5°F9.2°C 92% 9.0 mph NE14.5 kmh NE 13.0 mph20.9 kmh 29.94 in1013.9 mb 0.00 in0.0 mm 0.00 in0.0 mm 0.61 in15.5 mm
08:34 PM 49.3°F9.6°C 48.5°F9.2°C 92% 5.0 mph NE8.0 kmh NE 13.0 mph20.9 kmh 29.94 in1013.9 mb 0.00 in0.0 mm 0.00 in0.0 mm 0.61 in15.5 mm
08:36 PM 49.2°F9.6°C 48.4°F9.1°C 92% 3.0 mph E4.8 kmh E 13.0 mph20.9 kmh 29.94 in1013.9 mb 0.00 in0.0 mm 0.00 in0.0 mm 0.61 in15.5 mm
08:38 PM 49.3°F9.6°C 48.5°F9.2°C 92% 6.0 mph NE9.7 kmh NE 13.0 mph20.9 kmh 29.94 in1013.9 mb 0.00 in0.0 mm 0.00 in0.0 mm 0.61 in15.5 mm
08:40 PM 49.2°F9.6°C 48.4°F9.1°C 92% 5.0 mph E8.0 kmh E 13.0 mph20.9 kmh 29.94 in1013.9 mb 0.00 in0.0 mm 0.00 in0.0 mm 0.61 in15.5 mm
08:42 PM 49.2°F9.6°C 48.4°F9.1°C 92% 6.0 mph E9.7 kmh E 13.0 mph20.9 kmh 29.94 in1013.9 mb 0.00 in0.0 mm 0.00 in0.0 mm 0.61 in15.5 mm
08:44 PM 49.2°F9.6°C 48.4°F9.1°C 92% 7.0 mph NE11.3 kmh NE 13.0 mph20.9 kmh 29.94 in1013.9 mb 0.00 in0.0 mm 0.00 in0.0 mm 0.61 in15.5 mm
08:46 PM 49.1°F9.5°C 48.3°F9.1°C 92% 7.0 mph NNE11.3 kmh NNE 13.0 mph20.9 kmh 29.94 in1013.9 mb 0.00 in0.0 mm 0.00 in0.0 mm 0.61 in15.5 mm
08:48 PM 49.2°F9.6°C 48.4°F9.1°C 92% 3.0 mph NE4.8 kmh NE 12.0 mph19.3 kmh 29.93 in1013.5 mb 0.00 in0.0 mm 0.00 in0.0 mm 0.61 in15.5 mm
08:50 PM 49.2°F9.6°C 48.4°F9.1°C 92% 6.0 mph N9.7 kmh N 12.0 mph19.3 kmh 29.93 in1013.5 mb 0.00 in0.0 mm 0.00 in0.0 mm 0.61 in15.5 mm
08:52 PM 49.1°F9.5°C 48.3°F9.1°C 92% 9.0 mph NE14.5 kmh NE 16.0 mph25.7 kmh 29.93 in1013.5 mb 0.00 in0.0 mm 0.00 in0.0 mm 0.61 in15.5 mm
08:54 PM 49.1°F9.5°C 48.3°F9.1°C 92% 6.0 mph NE9.7 kmh NE 17.0 mph27.4 kmh 29.93 in1013.5 mb 0.00 in0.0 mm 0.00 in0.0 mm 0.61 in15.5 mm
08:56 PM 49.1°F9.5°C 48.3°F9.1°C 92% 2.0 mph E3.2 kmh E 17.0 mph27.4 kmh 29.93 in1013.5 mb 0.00 in0.0 mm 0.00 in0.0 mm 0.61 in15.5 mm
08:58 PM 49.1°F9.5°C 48.3°F9.1°C 92% 5.0 mph NNE8.0 kmh NNE 17.0 mph27.4 kmh 29.93 in1013.5 mb 0.00 in0.0 mm 0.00 in0.0 mm 0.61 in15.5 mm
09:00 PM 49.1°F9.5°C 48.3°F9.1°C 92% 11.0 mph S17.7 kmh S 17.0 mph27.4 kmh 29.93 in1013.5 mb 0.00 in0.0 mm 0.00 in0.0 mm 0.61 in15.5 mm
09:02 PM 49.1°F9.5°C 48.3°F9.1°C 92% 6.0 mph ENE9.7 kmh ENE 17.0 mph27.4 kmh 29.93 in1013.5 mb 0.00 in0.0 mm 0.00 in0.0 mm 0.61 in15.5 mm
09:04 PM 49.0°F9.4°C 48.2°F9.0°C 92% 3.0 mph NE4.8 kmh NE 17.0 mph27.4 kmh 29.94 in1013.9 mb 0.00 in0.0 mm 0.00 in0.0 mm 0.61 in15.5 mm
09:06 PM 49.0°F9.4°C 48.2°F9.0°C 92% 3.0 mph ENE4.8 kmh ENE 17.0 mph27.4 kmh 29.93 in1013.5 mb 0.00 in0.0 mm 0.00 in0.0 mm 0.61 in15.5 mm
09:08 PM 49.0°F9.4°C 48.2°F9.0°C 92% 3.0 mph E4.8 kmh E 17.0 mph27.4 kmh 29.94 in1013.9 mb 0.00 in0.0 mm 0.00 in0.0 mm 0.61 in15.5 mm
09:10 PM 49.0°F9.4°C 48.2°F9.0°C 92% 3.0 mph NE4.8 kmh NE 17.0 mph27.4 kmh 29.94 in1013.9 mb 0.00 in0.0 mm 0.00 in0.0 mm 0.61 in15.5 mm
09:12 PM 49.0°F9.4°C 48.2°F9.0°C 92% 6.0 mph NE9.7 kmh NE 17.0 mph27.4 kmh 29.94 in1013.9 mb 0.00 in0.0 mm 0.00 in0.0 mm 0.61 in15.5 mm
09:14 PM 49.0°F9.4°C 48.2°F9.0°C 92% 6.0 mph NE9.7 kmh NE 11.0 mph17.7 kmh 29.94 in1013.9 mb 0.00 in0.0 mm 0.00 in0.0 mm 0.61 in15.5 mm
09:16 PM 49.0°F9.4°C 48.2°F9.0°C 92% 3.0 mph ENE4.8 kmh ENE 12.0 mph19.3 kmh 29.94 in1013.9 mb 0.00 in0.0 mm 0.00 in0.0 mm 0.61 in15.5 mm
09:18 PM 48.9°F9.4°C 48.1°F8.9°C 92% 3.0 mph NE4.8 kmh NE 12.0 mph19.3 kmh 29.94 in1013.9 mb 0.00 in0.0 mm 0.00 in0.0 mm 0.61 in15.5 mm
09:20 PM 48.9°F9.4°C 48.1°F8.9°C 92% 9.0 mph SSE14.5 kmh SSE 12.0 mph19.3 kmh 29.93 in1013.5 mb 0.00 in0.0 mm 0.00 in0.0 mm 0.61 in15.5 mm
09:22 PM 48.9°F9.4°C 48.1°F8.9°C 92% 4.0 mph ENE6.4 kmh ENE 14.0 mph22.5 kmh 29.93 in1013.5 mb 0.00 in0.0 mm 0.00 in0.0 mm 0.61 in15.5 mm
09:24 PM 48.9°F9.4°C 48.1°F8.9°C 92% 5.0 mph NNW8.0 kmh NNW 16.0 mph25.7 kmh 29.93 in1013.5 mb 0.00 in0.0 mm 0.00 in0.0 mm 0.61 in15.5 mm
09:26 PM 49.0°F9.4°C 48.2°F9.0°C 92% 7.0 mph E11.3 kmh E 16.0 mph25.7 kmh 29.93 in1013.5 mb 0.00 in0.0 mm 0.00 in0.0 mm 0.61 in15.5 mm
09:28 PM 48.9°F9.4°C 48.1°F8.9°C 92% 4.0 mph NE6.4 kmh NE 16.0 mph25.7 kmh 29.93 in1013.5 mb 0.00 in0.0 mm 0.00 in0.0 mm 0.61 in15.5 mm
09:30 PM 48.9°F9.4°C 48.1°F8.9°C 92% 8.0 mph NNW12.9 kmh NNW 16.0 mph25.7 kmh 29.93 in1013.5 mb 0.00 in0.0 mm 0.00 in0.0 mm 0.61 in15.5 mm
09:32 PM 48.9°F9.4°C 48.1°F8.9°C 92% 4.0 mph NNE6.4 kmh NNE 16.0 mph25.7 kmh 29.93 in1013.5 mb 0.00 in0.0 mm 0.00 in0.0 mm 0.61 in15.5 mm
09:34 PM 48.8°F9.3°C 48.0°F8.9°C 92% 9.0 mph ENE14.5 kmh ENE 16.0 mph25.7 kmh 29.93 in1013.5 mb 0.00 in0.0 mm 0.00 in0.0 mm 0.61 in15.5 mm
09:36 PM 48.8°F9.3°C 48.0°F8.9°C 92% 7.0 mph NE11.3 kmh NE 16.0 mph25.7 kmh 29.93 in1013.5 mb 0.00 in0.0 mm 0.00 in0.0 mm 0.61 in15.5 mm
09:38 PM 48.8°F9.3°C 48.0°F8.9°C 92% 3.0 mph NNE4.8 kmh NNE 16.0 mph25.7 kmh 29.93 in1013.5 mb 0.00 in0.0 mm 0.00 in0.0 mm 0.61 in15.5 mm
09:40 PM 48.7°F9.3°C 47.9°F8.8°C 92% 4.0 mph NE6.4 kmh NE 16.0 mph25.7 kmh 29.93 in1013.5 mb 0.00 in0.0 mm 0.00 in0.0 mm 0.61 in15.5 mm
09:42 PM 48.7°F9.3°C 48.2°F9.0°C 93% 9.0 mph NE14.5 kmh NE 16.0 mph25.7 kmh 29.93 in1013.5 mb 0.00 in0.0 mm 0.00 in0.0 mm 0.61 in15.5 mm
09:44 PM 48.7°F9.3°C 48.2°F9.0°C 93% 4.0 mph ENE6.4 kmh ENE 16.0 mph25.7 kmh 29.93 in1013.5 mb 0.00 in0.0 mm 0.00 in0.0 mm 0.61 in15.5 mm
09:46 PM 48.7°F9.3°C 48.2°F9.0°C 93% 10.0 mph NE16.1 kmh NE 16.0 mph25.7 kmh 29.92 in1013.2 mb 0.00 in0.0 mm 0.00 in0.0 mm 0.61 in15.5 mm
09:48 PM 48.7°F9.3°C 48.2°F9.0°C 93% 3.0 mph E4.8 kmh E 16.0 mph25.7 kmh 29.92 in1013.2 mb 0.00 in0.0 mm 0.00 in0.0 mm 0.61 in15.5 mm
09:50 PM 48.7°F9.3°C 48.2°F9.0°C 93% 6.0 mph NE9.7 kmh NE 16.0 mph25.7 kmh 29.92 in1013.2 mb 0.00 in0.0 mm 0.00 in0.0 mm 0.61 in15.5 mm
09:52 PM 48.7°F9.3°C 48.2°F9.0°C 93% 6.0 mph E9.7 kmh E 18.0 mph29.0 kmh 29.92 in1013.2 mb 0.00 in0.0 mm 0.00 in0.0 mm 0.61 in15.5 mm
09:54 PM 48.6°F9.2°C 48.1°F8.9°C 93% 3.0 mph E4.8 kmh E 18.0 mph29.0 kmh 29.92 in1013.2 mb 0.00 in0.0 mm 0.00 in0.0 mm 0.61 in15.5 mm
09:56 PM 48.7°F9.3°C 48.2°F9.0°C 93% 6.0 mph NE9.7 kmh NE 18.0 mph29.0 kmh 29.92 in1013.2 mb 0.00 in0.0 mm 0.00 in0.0 mm 0.61 in15.5 mm
09:58 PM 48.6°F9.2°C 48.1°F8.9°C 93% 4.0 mph E6.4 kmh E 21.0 mph33.8 kmh 29.92 in1013.2 mb 0.00 in0.0 mm 0.00 in0.0 mm 0.61 in15.5 mm
10:00 PM 48.6°F9.2°C 48.1°F8.9°C 93% 7.0 mph NNE11.3 kmh NNE 21.0 mph33.8 kmh 29.92 in1013.2 mb 0.00 in0.0 mm 0.00 in0.0 mm 0.61 in15.5 mm
10:02 PM 48.5°F9.2°C 48.0°F8.9°C 93% 3.0 mph ENE4.8 kmh ENE 21.0 mph33.8 kmh 29.92 in1013.2 mb 0.00 in0.0 mm 0.00 in0.0 mm 0.61 in15.5 mm
10:04 PM 48.5°F9.2°C 48.0°F8.9°C 93% 8.0 mph ENE12.9 kmh ENE 21.0 mph33.8 kmh 29.92 in1013.2 mb 0.00 in0.0 mm 0.00 in0.0 mm 0.61 in15.5 mm
10:06 PM 48.5°F9.2°C 48.0°F8.9°C 93% 4.0 mph E6.4 kmh E 21.0 mph33.8 kmh 29.92 in1013.2 mb 0.00 in0.0 mm 0.00 in0.0 mm 0.62 in15.7 mm
10:08 PM 48.5°F9.2°C 48.0°F8.9°C 93% 10.0 mph NE16.1 kmh NE 21.0 mph33.8 kmh 29.92 in1013.2 mb 0.00 in0.0 mm 0.00 in0.0 mm 0.62 in15.7 mm
10:10 PM 48.5°F9.2°C 48.0°F8.9°C 93% 9.0 mph NE14.5 kmh NE 21.0 mph33.8 kmh 29.92 in1013.2 mb 0.10 in2.5 mm 3.00 in76.2 mm 0.62 in15.7 mm
10:12 PM 48.5°F9.2°C 48.2°F9.0°C 94% 4.0 mph ESE6.4 kmh ESE 21.0 mph33.8 kmh 29.93 in1013.5 mb 0.10 in2.5 mm 0.00 in0.0 mm 0.63 in16.0 mm
10:14 PM 48.5°F9.2°C 48.2°F9.0°C 94% 6.0 mph NE9.7 kmh NE 21.0 mph33.8 kmh 29.93 in1013.5 mb 0.10 in2.5 mm 0.00 in0.0 mm 0.63 in16.0 mm
10:16 PM 48.5°F9.2°C 48.2°F9.0°C 94% 8.0 mph NE12.9 kmh NE 21.0 mph33.8 kmh 29.93 in1013.5 mb 0.09 in2.3 mm 0.00 in0.0 mm 0.63 in16.0 mm
10:18 PM 48.5°F9.2°C 48.2°F9.0°C 94% 5.0 mph NE8.0 kmh NE 14.0 mph22.5 kmh 29.93 in1013.5 mb 0.07 in1.8 mm 0.00 in0.0 mm 0.63 in16.0 mm
10:20 PM 48.5°F9.2°C 48.2°F9.0°C 94% 2.0 mph ENE3.2 kmh ENE 14.0 mph22.5 kmh 29.93 in1013.5 mb 0.06 in1.5 mm 0.00 in0.0 mm 0.63 in16.0 mm
10:22 PM 48.5°F9.2°C 48.0°F8.9°C 93% 7.0 mph NE11.3 kmh NE 14.0 mph22.5 kmh 29.93 in1013.5 mb 0.05 in1.3 mm 0.00 in0.0 mm 0.63 in16.0 mm
10:24 PM 48.5°F9.2°C 48.2°F9.0°C 94% 2.0 mph NE3.2 kmh NE 15.0 mph24.1 kmh 29.93 in1013.5 mb 0.04 in1.0 mm 0.00 in0.0 mm 0.63 in16.0 mm
10:26 PM 48.5°F9.2°C 48.2°F9.0°C 94% 3.0 mph ENE4.8 kmh ENE 15.0 mph24.1 kmh 29.93 in1013.5 mb 0.04 in1.0 mm 0.00 in0.0 mm 0.63 in16.0 mm
10:28 PM 48.5°F9.2°C 48.2°F9.0°C 94% 1.0 mph ESE1.6 kmh ESE 15.0 mph24.1 kmh 29.93 in1013.5 mb 0.00 in0.0 mm 0.00 in0.0 mm 0.63 in16.0 mm
10:30 PM 48.5°F9.2°C 48.0°F8.9°C 93% 4.0 mph ENE6.4 kmh ENE 15.0 mph24.1 kmh 29.93 in1013.5 mb 0.00 in0.0 mm 0.00 in0.0 mm 0.63 in16.0 mm
10:34 PM 48.5°F9.2°C 48.2°F9.0°C 94% 6.0 mph NE9.7 kmh NE 15.0 mph24.1 kmh 29.93 in1013.5 mb 0.00 in0.0 mm 0.00 in0.0 mm 0.63 in16.0 mm
10:36 PM 48.5°F9.2°C 48.2°F9.0°C 94% 5.0 mph E8.0 kmh E 15.0 mph24.1 kmh 29.93 in1013.5 mb 0.00 in0.0 mm 0.00 in0.0 mm 0.63 in16.0 mm
10:38 PM 48.5°F9.2°C 48.2°F9.0°C 94% 12.0 mph NE19.3 kmh NE 15.0 mph24.1 kmh 29.93 in1013.5 mb 0.00 in0.0 mm 0.00 in0.0 mm 0.63 in16.0 mm
10:40 PM 48.4°F9.1°C 48.1°F8.9°C 94% 4.0 mph NE6.4 kmh NE 19.0 mph30.6 kmh 29.94 in1013.9 mb 0.00 in0.0 mm 0.00 in0.0 mm 0.63 in16.0 mm
10:42 PM 48.5°F9.2°C 48.2°F9.0°C 94% 2.0 mph ESE3.2 kmh ESE 19.0 mph30.6 kmh 29.94 in1013.9 mb 0.00 in0.0 mm 0.00 in0.0 mm 0.63 in16.0 mm
10:44 PM 48.4°F9.1°C 48.1°F8.9°C 94% 5.0 mph ENE8.0 kmh ENE 19.0 mph30.6 kmh 29.94 in1013.9 mb 0.00 in0.0 mm 0.00 in0.0 mm 0.63 in16.0 mm
10:46 PM 48.4°F9.1°C 48.1°F8.9°C 94% 4.0 mph NE6.4 kmh NE 19.0 mph30.6 kmh 29.94 in1013.9 mb 0.00 in0.0 mm 0.00 in0.0 mm 0.63 in16.0 mm
10:48 PM 48.5°F9.2°C 48.2°F9.0°C 94% 5.0 mph ENE8.0 kmh ENE 19.0 mph30.6 kmh 29.94 in1013.9 mb 0.00 in0.0 mm 0.00 in0.0 mm 0.63 in16.0 mm
10:50 PM 48.4°F9.1°C 48.1°F8.9°C 94% 2.0 mph E3.2 kmh E 19.0 mph30.6 kmh 29.94 in1013.9 mb 0.00 in0.0 mm 0.00 in0.0 mm 0.63 in16.0 mm
10:52 PM 48.4°F9.1°C 48.1°F8.9°C 94% 2.0 mph SSE3.2 kmh SSE 19.0 mph30.6 kmh 29.94 in1013.9 mb 0.00 in0.0 mm 0.00 in0.0 mm 0.63 in16.0 mm
10:54 PM 48.4°F9.1°C 48.1°F8.9°C 94% 3.0 mph NE4.8 kmh NE 19.0 mph30.6 kmh 29.94 in1013.9 mb 0.00 in0.0 mm 0.00 in0.0 mm 0.63 in16.0 mm
10:56 PM 48.4°F9.1°C 48.1°F8.9°C 94% 3.0 mph E4.8 kmh E 19.0 mph30.6 kmh 29.94 in1013.9 mb 0.00 in0.0 mm 0.00 in0.0 mm 0.63 in16.0 mm
10:58 PM 48.4°F9.1°C 48.1°F8.9°C 94% 5.0 mph NE8.0 kmh NE 19.0 mph30.6 kmh 29.94 in1013.9 mb 0.00 in0.0 mm 0.00 in0.0 mm 0.63 in16.0 mm
11:00 PM 48.4°F9.1°C 48.1°F8.9°C 94% 3.0 mph NE4.8 kmh NE 11.0 mph17.7 kmh 29.94 in1013.9 mb 0.00 in0.0 mm 0.00 in0.0 mm 0.63 in16.0 mm
11:02 PM 48.4°F9.1°C 48.1°F8.9°C 94% 3.0 mph NE4.8 kmh NE 11.0 mph17.7 kmh 29.94 in1013.9 mb 0.00 in0.0 mm 0.00 in0.0 mm 0.64 in16.3 mm
11:04 PM 48.4°F9.1°C 48.1°F8.9°C 94% 4.0 mph NE6.4 kmh NE 11.0 mph17.7 kmh 29.94 in1013.9 mb 0.00 in0.0 mm 0.00 in0.0 mm 0.64 in16.3 mm
11:06 PM 48.3°F9.1°C 48.0°F8.9°C 94% 2.0 mph NE3.2 kmh NE 11.0 mph17.7 kmh 29.94 in1013.9 mb 0.00 in0.0 mm 0.00 in0.0 mm 0.64 in16.3 mm
11:08 PM 48.4°F9.1°C 48.1°F8.9°C 94% 3.0 mph NE4.8 kmh NE 11.0 mph17.7 kmh 29.94 in1013.9 mb 0.00 in0.0 mm 0.00 in0.0 mm 0.64 in16.3 mm
11:10 PM 48.4°F9.1°C 48.1°F8.9°C 94% 4.0 mph NE6.4 kmh NE 11.0 mph17.7 kmh 29.94 in1013.9 mb 0.00 in0.0 mm 0.00 in0.0 mm 0.64 in16.3 mm
11:12 PM 48.4°F9.1°C 48.1°F8.9°C 94% 10.0 mph ENE16.1 kmh ENE 11.0 mph17.7 kmh 29.94 in1013.9 mb 0.00 in0.0 mm 0.00 in0.0 mm 0.64 in16.3 mm
11:14 PM 48.3°F9.1°C 48.0°F8.9°C 94% 3.0 mph NE4.8 kmh NE 11.0 mph17.7 kmh 29.94 in1013.9 mb 0.00 in0.0 mm 0.00 in0.0 mm 0.64 in16.3 mm
11:16 PM 48.4°F9.1°C 48.1°F8.9°C 94% 2.0 mph NNE3.2 kmh NNE 11.0 mph17.7 kmh 29.94 in1013.9 mb 0.00 in0.0 mm 0.00 in0.0 mm 0.64 in16.3 mm
11:18 PM 48.4°F9.1°C 48.1°F8.9°C 94% 5.0 mph NE8.0 kmh NE 11.0 mph17.7 kmh 29.94 in1013.9 mb 0.00 in0.0 mm 0.00 in0.0 mm 0.64 in16.3 mm
11:20 PM 48.3°F9.1°C 47.8°F8.8°C 93% 3.0 mph NE4.8 kmh NE 10.0 mph16.1 kmh 29.94 in1013.9 mb 0.00 in0.0 mm 0.00 in0.0 mm 0.64 in16.3 mm
11:22 PM 48.3°F9.1°C 47.8°F8.8°C 93% 5.0 mph NE8.0 kmh NE 10.0 mph16.1 kmh 29.94 in1013.9 mb 0.00 in0.0 mm 0.00 in0.0 mm 0.64 in16.3 mm
11:24 PM 48.3°F9.1°C 47.8°F8.8°C 93% 3.0 mph E4.8 kmh E 10.0 mph16.1 kmh 29.94 in1013.9 mb 0.00 in0.0 mm 0.00 in0.0 mm 0.64 in16.3 mm
11:26 PM 48.3°F9.1°C 47.8°F8.8°C 93% 6.0 mph E9.7 kmh E 11.0 mph17.7 kmh 29.94 in1013.9 mb 0.00 in0.0 mm 0.00 in0.0 mm 0.64 in16.3 mm
11:28 PM 48.2°F9.0°C 47.7°F8.7°C 93% 4.0 mph NE6.4 kmh NE 11.0 mph17.7 kmh 29.94 in1013.9 mb 0.00 in0.0 mm 0.00 in0.0 mm 0.64 in16.3 mm
11:30 PM 48.2°F9.0°C 47.7°F8.7°C 93% 6.0 mph NE9.7 kmh NE 11.0 mph17.7 kmh 29.94 in1013.9 mb 0.00 in0.0 mm 0.00 in0.0 mm 0.64 in16.3 mm
11:32 PM 48.2°F9.0°C 47.7°F8.7°C 93% 3.0 mph NE4.8 kmh NE 12.0 mph19.3 kmh 29.94 in1013.9 mb 0.00 in0.0 mm 0.00 in0.0 mm 0.64 in16.3 mm
11:34 PM 48.2°F9.0°C 47.7°F8.7°C 93% Calm Calm 12.0 mph19.3 kmh 29.94 in1013.9 mb 0.00 in0.0 mm 0.00 in0.0 mm 0.64 in16.3 mm
11:36 PM 48.1°F8.9°C 47.6°F8.7°C 93% 4.0 mph NE6.4 kmh NE 12.0 mph19.3 kmh 29.94 in1013.9 mb 0.00 in0.0 mm 0.00 in0.0 mm 0.64 in16.3 mm
11:38 PM 48.1°F8.9°C 47.6°F8.7°C 93% 4.0 mph NNE6.4 kmh NNE 12.0 mph19.3 kmh 29.94 in1013.9 mb 0.00 in0.0 mm 0.00 in0.0 mm 0.64 in16.3 mm
11:40 PM 48.1°F8.9°C 47.6°F8.7°C 93% 3.0 mph E4.8 kmh E 12.0 mph19.3 kmh 29.94 in1013.9 mb 0.00 in0.0 mm 0.00 in0.0 mm 0.64 in16.3 mm
11:42 PM 48.0°F8.9°C 47.5°F8.6°C 93% 2.0 mph NE3.2 kmh NE 12.0 mph19.3 kmh 29.94 in1013.9 mb 0.00 in0.0 mm 0.00 in0.0 mm 0.64 in16.3 mm
11:44 PM 47.9°F8.8°C 47.4°F8.6°C 93% 4.0 mph NNE6.4 kmh NNE 12.0 mph19.3 kmh 29.95 in1014.2 mb 0.00 in0.0 mm 0.00 in0.0 mm 0.64 in16.3 mm
11:46 PM 47.9°F8.8°C 47.4°F8.6°C 93% 4.0 mph E6.4 kmh E 12.0 mph19.3 kmh 29.95 in1014.2 mb 0.00 in0.0 mm 0.00 in0.0 mm 0.64 in16.3 mm
11:48 PM 47.8°F8.8°C 47.3°F8.5°C 93% 5.0 mph NNE8.0 kmh NNE 12.0 mph19.3 kmh 29.95 in1014.2 mb 0.00 in0.0 mm 0.00 in0.0 mm 0.64 in16.3 mm
11:50 PM 47.8°F8.8°C 47.3°F8.5°C 93% 1.0 mph NE1.6 kmh NE 12.0 mph19.3 kmh 29.95 in1014.2 mb 0.00 in0.0 mm 0.00 in0.0 mm 0.65 in16.5 mm
11:52 PM 47.7°F8.7°C 47.2°F8.4°C 93% 2.0 mph E3.2 kmh E 12.0 mph19.3 kmh 29.95 in1014.2 mb 0.00 in0.0 mm 0.00 in0.0 mm 0.65 in16.5 mm
11:54 PM 47.7°F8.7°C 47.2°F8.4°C 93% 1.0 mph ENE1.6 kmh ENE 12.0 mph19.3 kmh 29.95 in1014.2 mb 0.00 in0.0 mm 0.00 in0.0 mm 0.65 in16.5 mm
11:56 PM 47.6°F8.7°C 47.1°F8.4°C 93% 2.0 mph ENE3.2 kmh ENE 12.0 mph19.3 kmh 29.94 in1013.9 mb 0.00 in0.0 mm 0.00 in0.0 mm 0.65 in16.5 mm
11:58 PM 47.6°F8.7°C 47.1°F8.4°C 93% 4.0 mph N6.4 kmh N 12.0 mph19.3 kmh 29.94 in1013.9 mb 0.06 in1.5 mm 1.80 in45.7 mm 0.65 in16.5 mm